<?xml version="1.0" encoding="UTF-8" standalone="no" ?>
<gpx xmlns="http://www.topografix.com/GPX/1/1" xmlns:xsi="http://www.w3.org/2001/XMLSchema-instance" xsi:schemaLocation="http://www.topografix.com/GPX/1/1 http://www.topografix.com/GPX/1/1/gpx.xsd" version="1.1" creator="VisuGPX - https://www.visugpx.com">
  <metadata>
    <name>T S N 2 PONT D OUILLY - MENIL HUBERT S ORNE</name>
    <desc><![CDATA[FAIT]]></desc>
  </metadata>
  <trk>
    <name><![CDATA[T S N 2 PONT D'OUILLY - MENI HUBERT S ORNE-17891303]]></name>
    <trkseg>
      <trkpt lat="48.87321" lon="-0.41302">
        <ele>56</ele>
        <time>2023-11-02T14:33:10Z</time>
      </trkpt>
      <trkpt lat="48.87322" lon="-0.41296">
        <ele>55</ele>
        <time>2023-11-02T14:33:15Z</time>
      </trkpt>
      <trkpt lat="48.87317" lon="-0.41289">
        <ele>55</ele>
        <time>2023-11-02T14:33:25Z</time>
      </trkpt>
      <trkpt lat="48.87276" lon="-0.41275">
        <ele>53</ele>
        <time>2023-11-02T14:34:21Z</time>
      </trkpt>
      <trkpt lat="48.87264" lon="-0.41262">
        <ele>52</ele>
        <time>2023-11-02T14:34:40Z</time>
      </trkpt>
      <trkpt lat="48.87272" lon="-0.4124">
        <ele>51</ele>
        <time>2023-11-02T14:35:02Z</time>
      </trkpt>
      <trkpt lat="48.87285" lon="-0.41224">
        <ele>51</ele>
        <time>2023-11-02T14:35:25Z</time>
      </trkpt>
      <trkpt lat="48.87309" lon="-0.41179">
        <ele>51</ele>
        <time>2023-11-02T14:36:15Z</time>
      </trkpt>
      <trkpt lat="48.87345" lon="-0.41149">
        <ele>51</ele>
        <time>2023-11-02T14:37:10Z</time>
      </trkpt>
      <trkpt lat="48.87366" lon="-0.4112">
        <ele>50</ele>
        <time>2023-11-02T14:37:48Z</time>
      </trkpt>
      <trkpt lat="48.87364" lon="-0.41103">
        <ele>50</ele>
        <time>2023-11-02T14:38:03Z</time>
      </trkpt>
      <trkpt lat="48.87373" lon="-0.4108">
        <ele>50</ele>
        <time>2023-11-02T14:38:27Z</time>
      </trkpt>
      <trkpt lat="48.8739" lon="-0.40987">
        <ele>51</ele>
        <time>2023-11-02T14:39:51Z</time>
      </trkpt>
      <trkpt lat="48.87375" lon="-0.40953">
        <ele>53</ele>
        <time>2023-11-02T14:40:27Z</time>
      </trkpt>
      <trkpt lat="48.87376" lon="-0.40934">
        <ele>54</ele>
        <time>2023-11-02T14:40:44Z</time>
      </trkpt>
      <trkpt lat="48.87378" lon="-0.40941">
        <ele>53</ele>
        <time>2023-11-02T14:40:51Z</time>
      </trkpt>
      <trkpt lat="48.87375" lon="-0.40944">
        <ele>53</ele>
        <time>2023-11-02T14:40:56Z</time>
      </trkpt>
      <trkpt lat="48.87379" lon="-0.40939">
        <ele>53</ele>
        <time>2023-11-02T14:41:03Z</time>
      </trkpt>
      <trkpt lat="48.87374" lon="-0.40948">
        <ele>53</ele>
        <time>2023-11-02T14:41:13Z</time>
      </trkpt>
      <trkpt lat="48.87371" lon="-0.40931">
        <ele>54</ele>
        <time>2023-11-02T14:41:28Z</time>
      </trkpt>
      <trkpt lat="48.87366" lon="-0.40925">
        <ele>54</ele>
        <time>2023-11-02T14:41:37Z</time>
      </trkpt>
      <trkpt lat="48.87369" lon="-0.40935">
        <ele>53</ele>
        <time>2023-11-02T14:41:46Z</time>
      </trkpt>
      <trkpt lat="48.87373" lon="-0.40929">
        <ele>54</ele>
        <time>2023-11-02T14:41:54Z</time>
      </trkpt>
      <trkpt lat="48.87371" lon="-0.40884">
        <ele>57</ele>
        <time>2023-11-02T14:42:34Z</time>
      </trkpt>
      <trkpt lat="48.87359" lon="-0.40818">
        <ele>63</ele>
        <time>2023-11-02T14:43:34Z</time>
      </trkpt>
      <trkpt lat="48.87364" lon="-0.40782">
        <ele>67</ele>
        <time>2023-11-02T14:44:06Z</time>
      </trkpt>
      <trkpt lat="48.87379" lon="-0.40755">
        <ele>70</ele>
        <time>2023-11-02T14:44:37Z</time>
      </trkpt>
      <trkpt lat="48.87372" lon="-0.40747">
        <ele>71</ele>
        <time>2023-11-02T14:44:49Z</time>
      </trkpt>
      <trkpt lat="48.87349" lon="-0.40744">
        <ele>72</ele>
        <time>2023-11-02T14:45:19Z</time>
      </trkpt>
      <trkpt lat="48.87351" lon="-0.40698">
        <ele>78</ele>
        <time>2023-11-02T14:46:00Z</time>
      </trkpt>
      <trkpt lat="48.87346" lon="-0.40661">
        <ele>82</ele>
        <time>2023-11-02T14:46:33Z</time>
      </trkpt>
      <trkpt lat="48.87355" lon="-0.40628">
        <ele>85</ele>
        <time>2023-11-02T14:47:04Z</time>
      </trkpt>
      <trkpt lat="48.87355" lon="-0.40613">
        <ele>87</ele>
        <time>2023-11-02T14:47:18Z</time>
      </trkpt>
      <trkpt lat="48.87364" lon="-0.4059">
        <ele>89</ele>
        <time>2023-11-02T14:47:41Z</time>
      </trkpt>
      <trkpt lat="48.87368" lon="-0.40557">
        <ele>91</ele>
        <time>2023-11-02T14:48:11Z</time>
      </trkpt>
      <trkpt lat="48.87376" lon="-0.40548">
        <ele>92</ele>
        <time>2023-11-02T14:48:24Z</time>
      </trkpt>
      <trkpt lat="48.87374" lon="-0.40525">
        <ele>94</ele>
        <time>2023-11-02T14:48:44Z</time>
      </trkpt>
      <trkpt lat="48.87385" lon="-0.40496">
        <ele>96</ele>
        <time>2023-11-02T14:49:14Z</time>
      </trkpt>
      <trkpt lat="48.8738" lon="-0.40452">
        <ele>99</ele>
        <time>2023-11-02T14:49:53Z</time>
      </trkpt>
      <trkpt lat="48.87386" lon="-0.40437">
        <ele>100</ele>
        <time>2023-11-02T14:50:08Z</time>
      </trkpt>
      <trkpt lat="48.87379" lon="-0.40403">
        <ele>103</ele>
        <time>2023-11-02T14:50:39Z</time>
      </trkpt>
      <trkpt lat="48.87377" lon="-0.40346">
        <ele>109</ele>
        <time>2023-11-02T14:51:30Z</time>
      </trkpt>
      <trkpt lat="48.87373" lon="-0.40341">
        <ele>110</ele>
        <time>2023-11-02T14:51:36Z</time>
      </trkpt>
      <trkpt lat="48.87365" lon="-0.40343">
        <ele>109</ele>
        <time>2023-11-02T14:51:47Z</time>
      </trkpt>
      <trkpt lat="48.87369" lon="-0.40332">
        <ele>111</ele>
        <time>2023-11-02T14:51:58Z</time>
      </trkpt>
      <trkpt lat="48.87371" lon="-0.40288">
        <ele>116</ele>
        <time>2023-11-02T14:52:37Z</time>
      </trkpt>
      <trkpt lat="48.87365" lon="-0.40233">
        <ele>122</ele>
        <time>2023-11-02T14:53:26Z</time>
      </trkpt>
      <trkpt lat="48.87366" lon="-0.40195">
        <ele>127</ele>
        <time>2023-11-02T14:53:59Z</time>
      </trkpt>
      <trkpt lat="48.87356" lon="-0.40142">
        <ele>133</ele>
        <time>2023-11-02T14:54:48Z</time>
      </trkpt>
      <trkpt lat="48.87358" lon="-0.40127">
        <ele>135</ele>
        <time>2023-11-02T14:55:01Z</time>
      </trkpt>
      <trkpt lat="48.87351" lon="-0.40008">
        <ele>150</ele>
        <time>2023-11-02T14:56:46Z</time>
      </trkpt>
      <trkpt lat="48.87357" lon="-0.3993">
        <ele>158</ele>
        <time>2023-11-02T14:57:55Z</time>
      </trkpt>
      <trkpt lat="48.87355" lon="-0.39895">
        <ele>161</ele>
        <time>2023-11-02T14:58:26Z</time>
      </trkpt>
      <trkpt lat="48.87343" lon="-0.39882">
        <ele>162</ele>
        <time>2023-11-02T14:58:45Z</time>
      </trkpt>
      <trkpt lat="48.87346" lon="-0.39884">
        <ele>162</ele>
        <time>2023-11-02T14:58:50Z</time>
      </trkpt>
      <trkpt lat="48.87348" lon="-0.39879">
        <ele>162</ele>
        <time>2023-11-02T14:58:55Z</time>
      </trkpt>
      <trkpt lat="48.87343" lon="-0.39805">
        <ele>169</ele>
        <time>2023-11-02T15:00:00Z</time>
      </trkpt>
      <trkpt lat="48.87344" lon="-0.39755">
        <ele>172</ele>
        <time>2023-11-02T15:00:44Z</time>
      </trkpt>
      <trkpt lat="48.87334" lon="-0.39682">
        <ele>176</ele>
        <time>2023-11-02T15:01:50Z</time>
      </trkpt>
      <trkpt lat="48.87325" lon="-0.3965">
        <ele>178</ele>
        <time>2023-11-02T15:02:20Z</time>
      </trkpt>
      <trkpt lat="48.87324" lon="-0.39627">
        <ele>179</ele>
        <time>2023-11-02T15:02:40Z</time>
      </trkpt>
      <trkpt lat="48.87294" lon="-0.39549">
        <ele>184</ele>
        <time>2023-11-02T15:04:00Z</time>
      </trkpt>
      <trkpt lat="48.87287" lon="-0.395">
        <ele>187</ele>
        <time>2023-11-02T15:04:44Z</time>
      </trkpt>
      <trkpt lat="48.87278" lon="-0.3947">
        <ele>189</ele>
        <time>2023-11-02T15:05:13Z</time>
      </trkpt>
      <trkpt lat="48.87276" lon="-0.39396">
        <ele>193</ele>
        <time>2023-11-02T15:06:18Z</time>
      </trkpt>
      <trkpt lat="48.87287" lon="-0.39326">
        <ele>195</ele>
        <time>2023-11-02T15:07:21Z</time>
      </trkpt>
      <trkpt lat="48.87288" lon="-0.3927">
        <ele>197</ele>
        <time>2023-11-02T15:08:10Z</time>
      </trkpt>
      <trkpt lat="48.87276" lon="-0.39138">
        <ele>200</ele>
        <time>2023-11-02T15:10:07Z</time>
      </trkpt>
      <trkpt lat="48.87278" lon="-0.39083">
        <ele>201</ele>
        <time>2023-11-02T15:10:55Z</time>
      </trkpt>
      <trkpt lat="48.87269" lon="-0.38988">
        <ele>202</ele>
        <time>2023-11-02T15:12:20Z</time>
      </trkpt>
      <trkpt lat="48.87263" lon="-0.38962">
        <ele>202</ele>
        <time>2023-11-02T15:12:44Z</time>
      </trkpt>
      <trkpt lat="48.87264" lon="-0.38914">
        <ele>203</ele>
        <time>2023-11-02T15:13:26Z</time>
      </trkpt>
      <trkpt lat="48.87258" lon="-0.38865">
        <ele>202</ele>
        <time>2023-11-02T15:14:10Z</time>
      </trkpt>
      <trkpt lat="48.87255" lon="-0.38738">
        <ele>203</ele>
        <time>2023-11-02T15:16:01Z</time>
      </trkpt>
      <trkpt lat="48.87246" lon="-0.38675">
        <ele>203</ele>
        <time>2023-11-02T15:16:58Z</time>
      </trkpt>
      <trkpt lat="48.87247" lon="-0.38636">
        <ele>203</ele>
        <time>2023-11-02T15:17:32Z</time>
      </trkpt>
      <trkpt lat="48.87238" lon="-0.38514">
        <ele>202</ele>
        <time>2023-11-02T15:19:20Z</time>
      </trkpt>
      <trkpt lat="48.87237" lon="-0.38407">
        <ele>203</ele>
        <time>2023-11-02T15:20:54Z</time>
      </trkpt>
      <trkpt lat="48.8723" lon="-0.3837">
        <ele>202</ele>
        <time>2023-11-02T15:21:27Z</time>
      </trkpt>
      <trkpt lat="48.87232" lon="-0.38351">
        <ele>202</ele>
        <time>2023-11-02T15:21:44Z</time>
      </trkpt>
      <trkpt lat="48.87226" lon="-0.38329">
        <ele>202</ele>
        <time>2023-11-02T15:22:05Z</time>
      </trkpt>
      <trkpt lat="48.87202" lon="-0.38329">
        <ele>201</ele>
        <time>2023-11-02T15:22:37Z</time>
      </trkpt>
      <trkpt lat="48.87173" lon="-0.38343">
        <ele>199</ele>
        <time>2023-11-02T15:23:18Z</time>
      </trkpt>
      <trkpt lat="48.87149" lon="-0.38345">
        <ele>199</ele>
        <time>2023-11-02T15:23:50Z</time>
      </trkpt>
      <trkpt lat="48.87097" lon="-0.38361">
        <ele>197</ele>
        <time>2023-11-02T15:25:01Z</time>
      </trkpt>
      <trkpt lat="48.87096" lon="-0.38358">
        <ele>197</ele>
        <time>2023-11-02T15:25:04Z</time>
      </trkpt>
      <trkpt lat="48.86971" lon="-0.384">
        <ele>192</ele>
        <time>2023-11-02T15:27:55Z</time>
      </trkpt>
      <trkpt lat="48.86952" lon="-0.38401">
        <ele>191</ele>
        <time>2023-11-02T15:28:20Z</time>
      </trkpt>
      <trkpt lat="48.86918" lon="-0.38416">
        <ele>190</ele>
        <time>2023-11-02T15:29:07Z</time>
      </trkpt>
      <trkpt lat="48.86898" lon="-0.3842">
        <ele>189</ele>
        <time>2023-11-02T15:29:34Z</time>
      </trkpt>
      <trkpt lat="48.86875" lon="-0.38437">
        <ele>189</ele>
        <time>2023-11-02T15:30:08Z</time>
      </trkpt>
      <trkpt lat="48.86858" lon="-0.38442">
        <ele>189</ele>
        <time>2023-11-02T15:30:31Z</time>
      </trkpt>
      <trkpt lat="48.86831" lon="-0.38458">
        <ele>188</ele>
        <time>2023-11-02T15:31:10Z</time>
      </trkpt>
      <trkpt lat="48.8681" lon="-0.38458">
        <ele>188</ele>
        <time>2023-11-02T15:31:38Z</time>
      </trkpt>
      <trkpt lat="48.86773" lon="-0.38465">
        <ele>188</ele>
        <time>2023-11-02T15:32:28Z</time>
      </trkpt>
      <trkpt lat="48.86742" lon="-0.38455">
        <ele>188</ele>
        <time>2023-11-02T15:33:10Z</time>
      </trkpt>
      <trkpt lat="48.86673" lon="-0.38414">
        <ele>185</ele>
        <time>2023-11-02T15:34:49Z</time>
      </trkpt>
      <trkpt lat="48.86646" lon="-0.38405">
        <ele>184</ele>
        <time>2023-11-02T15:35:26Z</time>
      </trkpt>
      <trkpt lat="48.86629" lon="-0.38405">
        <ele>183</ele>
        <time>2023-11-02T15:35:49Z</time>
      </trkpt>
      <trkpt lat="48.86617" lon="-0.3841">
        <ele>182</ele>
        <time>2023-11-02T15:36:05Z</time>
      </trkpt>
      <trkpt lat="48.86559" lon="-0.3841">
        <ele>180</ele>
        <time>2023-11-02T15:37:23Z</time>
      </trkpt>
      <trkpt lat="48.86506" lon="-0.3839">
        <ele>178</ele>
        <time>2023-11-02T15:38:35Z</time>
      </trkpt>
      <trkpt lat="48.86462" lon="-0.38392">
        <ele>176</ele>
        <time>2023-11-02T15:39:34Z</time>
      </trkpt>
      <trkpt lat="48.86434" lon="-0.38415">
        <ele>176</ele>
        <time>2023-11-02T15:40:17Z</time>
      </trkpt>
      <trkpt lat="48.86408" lon="-0.38445">
        <ele>175</ele>
        <time>2023-11-02T15:41:00Z</time>
      </trkpt>
      <trkpt lat="48.86399" lon="-0.38465">
        <ele>174</ele>
        <time>2023-11-02T15:41:21Z</time>
      </trkpt>
      <trkpt lat="48.86371" lon="-0.38547">
        <ele>172</ele>
        <time>2023-11-02T15:42:43Z</time>
      </trkpt>
      <trkpt lat="48.86351" lon="-0.38634">
        <ele>169</ele>
        <time>2023-11-02T15:44:03Z</time>
      </trkpt>
      <trkpt lat="48.8629" lon="-0.38794">
        <ele>162</ele>
        <time>2023-11-02T15:46:46Z</time>
      </trkpt>
      <trkpt lat="48.86253" lon="-0.38822">
        <ele>158</ele>
        <time>2023-11-02T15:47:41Z</time>
      </trkpt>
      <trkpt lat="48.86229" lon="-0.38846">
        <ele>156</ele>
        <time>2023-11-02T15:48:19Z</time>
      </trkpt>
      <trkpt lat="48.86209" lon="-0.38878">
        <ele>154</ele>
        <time>2023-11-02T15:48:58Z</time>
      </trkpt>
      <trkpt lat="48.8616" lon="-0.38902">
        <ele>150</ele>
        <time>2023-11-02T15:50:07Z</time>
      </trkpt>
      <trkpt lat="48.86132" lon="-0.38921">
        <ele>147</ele>
        <time>2023-11-02T15:50:48Z</time>
      </trkpt>
      <trkpt lat="48.86072" lon="-0.39">
        <ele>142</ele>
        <time>2023-11-02T15:52:34Z</time>
      </trkpt>
      <trkpt lat="48.86033" lon="-0.39039">
        <ele>137</ele>
        <time>2023-11-02T15:53:36Z</time>
      </trkpt>
      <trkpt lat="48.86009" lon="-0.39082">
        <ele>133</ele>
        <time>2023-11-02T15:54:25Z</time>
      </trkpt>
      <trkpt lat="48.85964" lon="-0.3914">
        <ele>126</ele>
        <time>2023-11-02T15:55:44Z</time>
      </trkpt>
      <trkpt lat="48.85893" lon="-0.39196">
        <ele>116</ele>
        <time>2023-11-02T15:57:31Z</time>
      </trkpt>
      <trkpt lat="48.85881" lon="-0.39219">
        <ele>115</ele>
        <time>2023-11-02T15:57:57Z</time>
      </trkpt>
      <trkpt lat="48.85863" lon="-0.39241">
        <ele>112</ele>
        <time>2023-11-02T15:58:27Z</time>
      </trkpt>
      <trkpt lat="48.85836" lon="-0.39263">
        <ele>109</ele>
        <time>2023-11-02T15:59:08Z</time>
      </trkpt>
      <trkpt lat="48.85764" lon="-0.3931">
        <ele>99</ele>
        <time>2023-11-02T16:00:53Z</time>
      </trkpt>
      <trkpt lat="48.85744" lon="-0.39313">
        <ele>97</ele>
        <time>2023-11-02T16:01:20Z</time>
      </trkpt>
      <trkpt lat="48.85714" lon="-0.39307">
        <ele>92</ele>
        <time>2023-11-02T16:02:00Z</time>
      </trkpt>
      <trkpt lat="48.8566" lon="-0.39314">
        <ele>83</ele>
        <time>2023-11-02T16:03:12Z</time>
      </trkpt>
      <trkpt lat="48.85626" lon="-0.39295">
        <ele>76</ele>
        <time>2023-11-02T16:04:01Z</time>
      </trkpt>
      <trkpt lat="48.85612" lon="-0.39302">
        <ele>74</ele>
        <time>2023-11-02T16:04:20Z</time>
      </trkpt>
      <trkpt lat="48.85582" lon="-0.39328">
        <ele>67</ele>
        <time>2023-11-02T16:05:07Z</time>
      </trkpt>
      <trkpt lat="48.85563" lon="-0.39332">
        <ele>64</ele>
        <time>2023-11-02T16:05:32Z</time>
      </trkpt>
      <trkpt lat="48.85546" lon="-0.39296">
        <ele>65</ele>
        <time>2023-11-02T16:06:11Z</time>
      </trkpt>
      <trkpt lat="48.85541" lon="-0.393">
        <ele>64</ele>
        <time>2023-11-02T16:06:19Z</time>
      </trkpt>
      <trkpt lat="48.85529" lon="-0.39294">
        <ele>63</ele>
        <time>2023-11-02T16:06:35Z</time>
      </trkpt>
      <trkpt lat="48.85528" lon="-0.39301">
        <ele>63</ele>
        <time>2023-11-02T16:06:42Z</time>
      </trkpt>
      <trkpt lat="48.85523" lon="-0.39302">
        <ele>62</ele>
        <time>2023-11-02T16:06:48Z</time>
      </trkpt>
      <trkpt lat="48.85526" lon="-0.39308">
        <ele>62</ele>
        <time>2023-11-02T16:06:55Z</time>
      </trkpt>
      <trkpt lat="48.8553" lon="-0.39308">
        <ele>62</ele>
        <time>2023-11-02T16:07:00Z</time>
      </trkpt>
      <trkpt lat="48.85527" lon="-0.39313">
        <ele>61</ele>
        <time>2023-11-02T16:07:06Z</time>
      </trkpt>
      <trkpt lat="48.85533" lon="-0.39306">
        <ele>63</ele>
        <time>2023-11-02T16:07:16Z</time>
      </trkpt>
      <trkpt lat="48.85539" lon="-0.39309">
        <ele>63</ele>
        <time>2023-11-02T16:07:25Z</time>
      </trkpt>
      <trkpt lat="48.85529" lon="-0.39312">
        <ele>62</ele>
        <time>2023-11-02T16:07:38Z</time>
      </trkpt>
      <trkpt lat="48.85528" lon="-0.39318">
        <ele>61</ele>
        <time>2023-11-02T16:07:44Z</time>
      </trkpt>
      <trkpt lat="48.85526" lon="-0.39313">
        <ele>61</ele>
        <time>2023-11-02T16:07:49Z</time>
      </trkpt>
      <trkpt lat="48.8553" lon="-0.39313">
        <ele>62</ele>
        <time>2023-11-02T16:07:54Z</time>
      </trkpt>
      <trkpt lat="48.8553" lon="-0.39307">
        <ele>62</ele>
        <time>2023-11-02T16:08:00Z</time>
      </trkpt>
      <trkpt lat="48.85527" lon="-0.39303">
        <ele>62</ele>
        <time>2023-11-02T16:08:05Z</time>
      </trkpt>
      <trkpt lat="48.85491" lon="-0.39273">
        <ele>62</ele>
        <time>2023-11-02T16:09:00Z</time>
      </trkpt>
      <trkpt lat="48.85473" lon="-0.39251">
        <ele>63</ele>
        <time>2023-11-02T16:09:31Z</time>
      </trkpt>
      <trkpt lat="48.85446" lon="-0.39234">
        <ele>64</ele>
        <time>2023-11-02T16:10:10Z</time>
      </trkpt>
      <trkpt lat="48.85417" lon="-0.39206">
        <ele>67</ele>
        <time>2023-11-02T16:10:55Z</time>
      </trkpt>
      <trkpt lat="48.85374" lon="-0.39173">
        <ele>67</ele>
        <time>2023-11-02T16:12:00Z</time>
      </trkpt>
      <trkpt lat="48.85357" lon="-0.39164">
        <ele>66</ele>
        <time>2023-11-02T16:12:24Z</time>
      </trkpt>
      <trkpt lat="48.85331" lon="-0.39135">
        <ele>68</ele>
        <time>2023-11-02T16:13:07Z</time>
      </trkpt>
      <trkpt lat="48.85321" lon="-0.3913">
        <ele>67</ele>
        <time>2023-11-02T16:13:21Z</time>
      </trkpt>
      <trkpt lat="48.8529" lon="-0.39101">
        <ele>67</ele>
        <time>2023-11-02T16:14:09Z</time>
      </trkpt>
      <trkpt lat="48.85261" lon="-0.39065">
        <ele>66</ele>
        <time>2023-11-02T16:14:59Z</time>
      </trkpt>
      <trkpt lat="48.85231" lon="-0.39051">
        <ele>63</ele>
        <time>2023-11-02T16:15:41Z</time>
      </trkpt>
      <trkpt lat="48.85202" lon="-0.39043">
        <ele>60</ele>
        <time>2023-11-02T16:16:21Z</time>
      </trkpt>
      <trkpt lat="48.85171" lon="-0.39013">
        <ele>61</ele>
        <time>2023-11-02T16:17:10Z</time>
      </trkpt>
      <trkpt lat="48.85143" lon="-0.3897">
        <ele>63</ele>
        <time>2023-11-02T16:18:03Z</time>
      </trkpt>
      <trkpt lat="48.85117" lon="-0.38942">
        <ele>64</ele>
        <time>2023-11-02T16:18:45Z</time>
      </trkpt>
      <trkpt lat="48.85112" lon="-0.38929">
        <ele>65</ele>
        <time>2023-11-02T16:18:58Z</time>
      </trkpt>
      <trkpt lat="48.85087" lon="-0.38895">
        <ele>65</ele>
        <time>2023-11-02T16:19:43Z</time>
      </trkpt>
      <trkpt lat="48.85086" lon="-0.38862">
        <ele>67</ele>
        <time>2023-11-02T16:20:12Z</time>
      </trkpt>
      <trkpt lat="48.85075" lon="-0.38834">
        <ele>67</ele>
        <time>2023-11-02T16:20:41Z</time>
      </trkpt>
      <trkpt lat="48.8507" lon="-0.38787">
        <ele>69</ele>
        <time>2023-11-02T16:21:23Z</time>
      </trkpt>
      <trkpt lat="48.85051" lon="-0.38716">
        <ele>71</ele>
        <time>2023-11-02T16:22:30Z</time>
      </trkpt>
      <trkpt lat="48.85033" lon="-0.38612">
        <ele>72</ele>
        <time>2023-11-02T16:24:04Z</time>
      </trkpt>
      <trkpt lat="48.85033" lon="-0.38555">
        <ele>74</ele>
        <time>2023-11-02T16:24:55Z</time>
      </trkpt>
      <trkpt lat="48.85042" lon="-0.38535">
        <ele>75</ele>
        <time>2023-11-02T16:25:16Z</time>
      </trkpt>
      <trkpt lat="48.85044" lon="-0.38509">
        <ele>76</ele>
        <time>2023-11-02T16:25:39Z</time>
      </trkpt>
      <trkpt lat="48.85067" lon="-0.3842">
        <ele>76</ele>
        <time>2023-11-02T16:27:03Z</time>
      </trkpt>
      <trkpt lat="48.851" lon="-0.3833">
        <ele>77</ele>
        <time>2023-11-02T16:28:33Z</time>
      </trkpt>
      <trkpt lat="48.85111" lon="-0.38285">
        <ele>74</ele>
        <time>2023-11-02T16:29:15Z</time>
      </trkpt>
      <trkpt lat="48.85119" lon="-0.38269">
        <ele>74</ele>
        <time>2023-11-02T16:29:33Z</time>
      </trkpt>
      <trkpt lat="48.85123" lon="-0.38243">
        <ele>72</ele>
        <time>2023-11-02T16:29:56Z</time>
      </trkpt>
      <trkpt lat="48.85129" lon="-0.38232">
        <ele>73</ele>
        <time>2023-11-02T16:30:09Z</time>
      </trkpt>
      <trkpt lat="48.85129" lon="-0.38209">
        <ele>71</ele>
        <time>2023-11-02T16:30:29Z</time>
      </trkpt>
      <trkpt lat="48.85139" lon="-0.38157">
        <ele>70</ele>
        <time>2023-11-02T16:31:17Z</time>
      </trkpt>
      <trkpt lat="48.85148" lon="-0.38143">
        <ele>71</ele>
        <time>2023-11-02T16:31:34Z</time>
      </trkpt>
      <trkpt lat="48.85155" lon="-0.3811">
        <ele>70</ele>
        <time>2023-11-02T16:32:04Z</time>
      </trkpt>
      <trkpt lat="48.85154" lon="-0.38095">
        <ele>70</ele>
        <time>2023-11-02T16:32:18Z</time>
      </trkpt>
      <trkpt lat="48.85145" lon="-0.38084">
        <ele>69</ele>
        <time>2023-11-02T16:32:33Z</time>
      </trkpt>
      <trkpt lat="48.85141" lon="-0.38071">
        <ele>70</ele>
        <time>2023-11-02T16:32:46Z</time>
      </trkpt>
      <trkpt lat="48.85135" lon="-0.38069">
        <ele>71</ele>
        <time>2023-11-02T16:32:54Z</time>
      </trkpt>
      <trkpt lat="48.85126" lon="-0.38087">
        <ele>69</ele>
        <time>2023-11-02T16:33:14Z</time>
      </trkpt>
      <trkpt lat="48.85115" lon="-0.38096">
        <ele>69</ele>
        <time>2023-11-02T16:33:30Z</time>
      </trkpt>
      <trkpt lat="48.85106" lon="-0.38121">
        <ele>69</ele>
        <time>2023-11-02T16:33:55Z</time>
      </trkpt>
      <trkpt lat="48.85084" lon="-0.38141">
        <ele>67</ele>
        <time>2023-11-02T16:34:30Z</time>
      </trkpt>
      <trkpt lat="48.85081" lon="-0.38149">
        <ele>66</ele>
        <time>2023-11-02T16:34:38Z</time>
      </trkpt>
      <trkpt lat="48.85056" lon="-0.38152">
        <ele>63</ele>
        <time>2023-11-02T16:35:11Z</time>
      </trkpt>
      <trkpt lat="48.85039" lon="-0.38149">
        <ele>62</ele>
        <time>2023-11-02T16:35:34Z</time>
      </trkpt>
      <trkpt lat="48.85003" lon="-0.3816">
        <ele>57</ele>
        <time>2023-11-02T16:36:23Z</time>
      </trkpt>
      <trkpt lat="48.84997" lon="-0.38157">
        <ele>57</ele>
        <time>2023-11-02T16:36:31Z</time>
      </trkpt>
      <trkpt lat="48.84957" lon="-0.38103">
        <ele>58</ele>
        <time>2023-11-02T16:37:43Z</time>
      </trkpt>
      <trkpt lat="48.84966" lon="-0.38112">
        <ele>58</ele>
        <time>2023-11-02T16:37:57Z</time>
      </trkpt>
      <trkpt lat="48.84957" lon="-0.38103">
        <ele>58</ele>
        <time>2023-11-02T16:38:12Z</time>
      </trkpt>
      <trkpt lat="48.84934" lon="-0.3806">
        <ele>58</ele>
        <time>2023-11-02T16:39:00Z</time>
      </trkpt>
      <trkpt lat="48.8492" lon="-0.38048">
        <ele>56</ele>
        <time>2023-11-02T16:39:22Z</time>
      </trkpt>
      <trkpt lat="48.84865" lon="-0.37979">
        <ele>56</ele>
        <time>2023-11-02T16:40:57Z</time>
      </trkpt>
      <trkpt lat="48.84751" lon="-0.37823">
        <ele>54</ele>
        <time>2023-11-02T16:44:22Z</time>
      </trkpt>
      <trkpt lat="48.84674" lon="-0.37667">
        <ele>55</ele>
        <time>2023-11-02T16:47:13Z</time>
      </trkpt>
      <trkpt lat="48.84636" lon="-0.37548">
        <ele>58</ele>
        <time>2023-11-02T16:49:09Z</time>
      </trkpt>
      <trkpt lat="48.84628" lon="-0.37509">
        <ele>58</ele>
        <time>2023-11-02T16:49:45Z</time>
      </trkpt>
      <trkpt lat="48.84626" lon="-0.37456">
        <ele>59</ele>
        <time>2023-11-02T16:50:31Z</time>
      </trkpt>
      <trkpt lat="48.84638" lon="-0.37375">
        <ele>61</ele>
        <time>2023-11-02T16:51:44Z</time>
      </trkpt>
      <trkpt lat="48.84641" lon="-0.37304">
        <ele>60</ele>
        <time>2023-11-02T16:52:47Z</time>
      </trkpt>
      <trkpt lat="48.84647" lon="-0.37269">
        <ele>60</ele>
        <time>2023-11-02T16:53:19Z</time>
      </trkpt>
      <trkpt lat="48.84655" lon="-0.37247">
        <ele>59</ele>
        <time>2023-11-02T16:53:41Z</time>
      </trkpt>
      <trkpt lat="48.84664" lon="-0.37188">
        <ele>58</ele>
        <time>2023-11-02T16:54:34Z</time>
      </trkpt>
      <trkpt lat="48.84691" lon="-0.37127">
        <ele>62</ele>
        <time>2023-11-02T16:55:38Z</time>
      </trkpt>
      <trkpt lat="48.84706" lon="-0.37065">
        <ele>63</ele>
        <time>2023-11-02T16:56:36Z</time>
      </trkpt>
      <trkpt lat="48.84735" lon="-0.3701">
        <ele>67</ele>
        <time>2023-11-02T16:57:38Z</time>
      </trkpt>
      <trkpt lat="48.84743" lon="-0.36972">
        <ele>66</ele>
        <time>2023-11-02T16:58:13Z</time>
      </trkpt>
      <trkpt lat="48.84753" lon="-0.36953">
        <ele>67</ele>
        <time>2023-11-02T16:58:35Z</time>
      </trkpt>
      <trkpt lat="48.84763" lon="-0.36895">
        <ele>66</ele>
        <time>2023-11-02T16:59:27Z</time>
      </trkpt>
      <trkpt lat="48.84772" lon="-0.36867">
        <ele>66</ele>
        <time>2023-11-02T16:59:55Z</time>
      </trkpt>
      <trkpt lat="48.84788" lon="-0.36838">
        <ele>67</ele>
        <time>2023-11-02T17:00:28Z</time>
      </trkpt>
      <trkpt lat="48.84811" lon="-0.3678">
        <ele>68</ele>
        <time>2023-11-02T17:01:27Z</time>
      </trkpt>
      <trkpt lat="48.84826" lon="-0.36759">
        <ele>68</ele>
        <time>2023-11-02T17:01:55Z</time>
      </trkpt>
      <trkpt lat="48.84836" lon="-0.36708">
        <ele>64</ele>
        <time>2023-11-02T17:02:41Z</time>
      </trkpt>
      <trkpt lat="48.84847" lon="-0.36685">
        <ele>63</ele>
        <time>2023-11-02T17:03:06Z</time>
      </trkpt>
      <trkpt lat="48.84864" lon="-0.36664">
        <ele>63</ele>
        <time>2023-11-02T17:03:36Z</time>
      </trkpt>
      <trkpt lat="48.84885" lon="-0.36617">
        <ele>61</ele>
        <time>2023-11-02T17:04:26Z</time>
      </trkpt>
      <trkpt lat="48.84904" lon="-0.36599">
        <ele>61</ele>
        <time>2023-11-02T17:04:55Z</time>
      </trkpt>
      <trkpt lat="48.84913" lon="-0.36539">
        <ele>60</ele>
        <time>2023-11-02T17:05:49Z</time>
      </trkpt>
      <trkpt lat="48.84933" lon="-0.36461">
        <ele>60</ele>
        <time>2023-11-02T17:07:03Z</time>
      </trkpt>
      <trkpt lat="48.84961" lon="-0.36378">
        <ele>60</ele>
        <time>2023-11-02T17:08:25Z</time>
      </trkpt>
      <trkpt lat="48.84975" lon="-0.3635">
        <ele>59</ele>
        <time>2023-11-02T17:08:56Z</time>
      </trkpt>
      <trkpt lat="48.84982" lon="-0.3631">
        <ele>58</ele>
        <time>2023-11-02T17:09:32Z</time>
      </trkpt>
      <trkpt lat="48.85007" lon="-0.36232">
        <ele>62</ele>
        <time>2023-11-02T17:10:48Z</time>
      </trkpt>
      <trkpt lat="48.85006" lon="-0.3621">
        <ele>65</ele>
        <time>2023-11-02T17:11:08Z</time>
      </trkpt>
      <trkpt lat="48.85009" lon="-0.36203">
        <ele>66</ele>
        <time>2023-11-02T17:11:15Z</time>
      </trkpt>
      <trkpt lat="48.85003" lon="-0.36198">
        <ele>67</ele>
        <time>2023-11-02T17:11:24Z</time>
      </trkpt>
      <trkpt lat="48.84996" lon="-0.36198">
        <ele>67</ele>
        <time>2023-11-02T17:11:33Z</time>
      </trkpt>
      <trkpt lat="48.84993" lon="-0.36192">
        <ele>67</ele>
        <time>2023-11-02T17:11:40Z</time>
      </trkpt>
      <trkpt lat="48.84955" lon="-0.3617">
        <ele>68</ele>
        <time>2023-11-02T17:12:34Z</time>
      </trkpt>
      <trkpt lat="48.84939" lon="-0.36154">
        <ele>69</ele>
        <time>2023-11-02T17:13:00Z</time>
      </trkpt>
      <trkpt lat="48.84936" lon="-0.36158">
        <ele>68</ele>
        <time>2023-11-02T17:13:05Z</time>
      </trkpt>
      <trkpt lat="48.84931" lon="-0.36152">
        <ele>68</ele>
        <time>2023-11-02T17:13:14Z</time>
      </trkpt>
      <trkpt lat="48.84922" lon="-0.36121">
        <ele>71</ele>
        <time>2023-11-02T17:13:43Z</time>
      </trkpt>
      <trkpt lat="48.84904" lon="-0.36094">
        <ele>71</ele>
        <time>2023-11-02T17:14:17Z</time>
      </trkpt>
      <trkpt lat="48.84897" lon="-0.36068">
        <ele>73</ele>
        <time>2023-11-02T17:14:42Z</time>
      </trkpt>
      <trkpt lat="48.84897" lon="-0.36053">
        <ele>75</ele>
        <time>2023-11-02T17:14:55Z</time>
      </trkpt>
      <trkpt lat="48.8486" lon="-0.35993">
        <ele>77</ele>
        <time>2023-11-02T17:16:07Z</time>
      </trkpt>
      <trkpt lat="48.84858" lon="-0.35966">
        <ele>80</ele>
        <time>2023-11-02T17:16:31Z</time>
      </trkpt>
      <trkpt lat="48.84847" lon="-0.35932">
        <ele>83</ele>
        <time>2023-11-02T17:17:04Z</time>
      </trkpt>
      <trkpt lat="48.8483" lon="-0.3591">
        <ele>85</ele>
        <time>2023-11-02T17:17:34Z</time>
      </trkpt>
      <trkpt lat="48.84812" lon="-0.35875">
        <ele>85</ele>
        <time>2023-11-02T17:18:13Z</time>
      </trkpt>
      <trkpt lat="48.84718" lon="-0.35781">
        <ele>91</ele>
        <time>2023-11-02T17:20:43Z</time>
      </trkpt>
      <trkpt lat="48.8471" lon="-0.35766">
        <ele>93</ele>
        <time>2023-11-02T17:21:00Z</time>
      </trkpt>
      <trkpt lat="48.84689" lon="-0.35742">
        <ele>96</ele>
        <time>2023-11-02T17:21:35Z</time>
      </trkpt>
      <trkpt lat="48.84655" lon="-0.3572">
        <ele>98</ele>
        <time>2023-11-02T17:22:25Z</time>
      </trkpt>
      <trkpt lat="48.84631" lon="-0.35691">
        <ele>102</ele>
        <time>2023-11-02T17:23:06Z</time>
      </trkpt>
      <trkpt lat="48.84585" lon="-0.35651">
        <ele>110</ele>
        <time>2023-11-02T17:24:16Z</time>
      </trkpt>
      <trkpt lat="48.84559" lon="-0.35646">
        <ele>113</ele>
        <time>2023-11-02T17:24:51Z</time>
      </trkpt>
      <trkpt lat="48.84531" lon="-0.35657">
        <ele>114</ele>
        <time>2023-11-02T17:25:30Z</time>
      </trkpt>
      <trkpt lat="48.84511" lon="-0.35655">
        <ele>117</ele>
        <time>2023-11-02T17:25:57Z</time>
      </trkpt>
      <trkpt lat="48.84494" lon="-0.35643">
        <ele>120</ele>
        <time>2023-11-02T17:26:22Z</time>
      </trkpt>
      <trkpt lat="48.84446" lon="-0.35623">
        <ele>130</ele>
        <time>2023-11-02T17:27:28Z</time>
      </trkpt>
      <trkpt lat="48.8443" lon="-0.3561">
        <ele>133</ele>
        <time>2023-11-02T17:27:52Z</time>
      </trkpt>
      <trkpt lat="48.84428" lon="-0.35601">
        <ele>134</ele>
        <time>2023-11-02T17:28:01Z</time>
      </trkpt>
      <trkpt lat="48.8442" lon="-0.35595">
        <ele>136</ele>
        <time>2023-11-02T17:28:13Z</time>
      </trkpt>
      <trkpt lat="48.84414" lon="-0.35592">
        <ele>136</ele>
        <time>2023-11-02T17:28:21Z</time>
      </trkpt>
      <trkpt lat="48.84405" lon="-0.35594">
        <ele>137</ele>
        <time>2023-11-02T17:28:33Z</time>
      </trkpt>
      <trkpt lat="48.84389" lon="-0.35586">
        <ele>138</ele>
        <time>2023-11-02T17:28:56Z</time>
      </trkpt>
      <trkpt lat="48.84367" lon="-0.35582">
        <ele>139</ele>
        <time>2023-11-02T17:29:25Z</time>
      </trkpt>
      <trkpt lat="48.84333" lon="-0.3556">
        <ele>139</ele>
        <time>2023-11-02T17:30:14Z</time>
      </trkpt>
      <trkpt lat="48.84262" lon="-0.35482">
        <ele>140</ele>
        <time>2023-11-02T17:32:11Z</time>
      </trkpt>
      <trkpt lat="48.84234" lon="-0.35444">
        <ele>141</ele>
        <time>2023-11-02T17:33:01Z</time>
      </trkpt>
      <trkpt lat="48.84211" lon="-0.354">
        <ele>140</ele>
        <time>2023-11-02T17:33:51Z</time>
      </trkpt>
      <trkpt lat="48.8417" lon="-0.35359">
        <ele>141</ele>
        <time>2023-11-02T17:34:56Z</time>
      </trkpt>
      <trkpt lat="48.84152" lon="-0.3533">
        <ele>141</ele>
        <time>2023-11-02T17:35:31Z</time>
      </trkpt>
      <trkpt lat="48.8411" lon="-0.35366">
        <ele>144</ele>
        <time>2023-11-02T17:36:36Z</time>
      </trkpt>
      <trkpt lat="48.84103" lon="-0.35379">
        <ele>145</ele>
        <time>2023-11-02T17:36:50Z</time>
      </trkpt>
      <trkpt lat="48.84093" lon="-0.35383">
        <ele>145</ele>
        <time>2023-11-02T17:37:04Z</time>
      </trkpt>
      <trkpt lat="48.84057" lon="-0.35417">
        <ele>147</ele>
        <time>2023-11-02T17:38:01Z</time>
      </trkpt>
      <trkpt lat="48.84029" lon="-0.35422">
        <ele>150</ele>
        <time>2023-11-02T17:38:38Z</time>
      </trkpt>
      <trkpt lat="48.84002" lon="-0.35439">
        <ele>152</ele>
        <time>2023-11-02T17:39:17Z</time>
      </trkpt>
      <trkpt lat="48.83958" lon="-0.35445">
        <ele>156</ele>
        <time>2023-11-02T17:40:16Z</time>
      </trkpt>
      <trkpt lat="48.83908" lon="-0.35423">
        <ele>161</ele>
        <time>2023-11-02T17:41:26Z</time>
      </trkpt>
      <trkpt lat="48.83875" lon="-0.35423">
        <ele>164</ele>
        <time>2023-11-02T17:42:10Z</time>
      </trkpt>
      <trkpt lat="48.83808" lon="-0.354">
        <ele>169</ele>
        <time>2023-11-02T17:43:42Z</time>
      </trkpt>
      <trkpt lat="48.83802" lon="-0.35405">
        <ele>170</ele>
        <time>2023-11-02T17:43:51Z</time>
      </trkpt>
      <trkpt lat="48.83803" lon="-0.35401">
        <ele>170</ele>
        <time>2023-11-02T17:43:54Z</time>
      </trkpt>
      <trkpt lat="48.83768" lon="-0.35396">
        <ele>172</ele>
        <time>2023-11-02T17:44:41Z</time>
      </trkpt>
      <trkpt lat="48.83739" lon="-0.35385">
        <ele>173</ele>
        <time>2023-11-02T17:45:21Z</time>
      </trkpt>
      <trkpt lat="48.837" lon="-0.35381">
        <ele>173</ele>
        <time>2023-11-02T17:46:13Z</time>
      </trkpt>
      <trkpt lat="48.83672" lon="-0.35383">
        <ele>174</ele>
        <time>2023-11-02T17:46:51Z</time>
      </trkpt>
      <trkpt lat="48.83601" lon="-0.35374">
        <ele>172</ele>
        <time>2023-11-02T17:48:26Z</time>
      </trkpt>
      <trkpt lat="48.83576" lon="-0.35381">
        <ele>170</ele>
        <time>2023-11-02T17:49:00Z</time>
      </trkpt>
      <trkpt lat="48.83562" lon="-0.3538">
        <ele>168</ele>
        <time>2023-11-02T17:49:19Z</time>
      </trkpt>
      <trkpt lat="48.83537" lon="-0.35362">
        <ele>166</ele>
        <time>2023-11-02T17:49:55Z</time>
      </trkpt>
      <trkpt lat="48.83539" lon="-0.35356">
        <ele>166</ele>
        <time>2023-11-02T17:50:01Z</time>
      </trkpt>
      <trkpt lat="48.83535" lon="-0.35349">
        <ele>166</ele>
        <time>2023-11-02T17:50:09Z</time>
      </trkpt>
      <trkpt lat="48.83541" lon="-0.35363">
        <ele>166</ele>
        <time>2023-11-02T17:50:24Z</time>
      </trkpt>
      <trkpt lat="48.83498" lon="-0.35338">
        <ele>163</ele>
        <time>2023-11-02T17:51:26Z</time>
      </trkpt>
      <trkpt lat="48.83471" lon="-0.35332">
        <ele>158</ele>
        <time>2023-11-02T17:52:02Z</time>
      </trkpt>
      <trkpt lat="48.8345" lon="-0.35303">
        <ele>157</ele>
        <time>2023-11-02T17:52:40Z</time>
      </trkpt>
      <trkpt lat="48.83443" lon="-0.35281">
        <ele>157</ele>
        <time>2023-11-02T17:53:01Z</time>
      </trkpt>
      <trkpt lat="48.83428" lon="-0.35261">
        <ele>157</ele>
        <time>2023-11-02T17:53:28Z</time>
      </trkpt>
      <trkpt lat="48.83402" lon="-0.35251">
        <ele>154</ele>
        <time>2023-11-02T17:54:04Z</time>
      </trkpt>
      <trkpt lat="48.83382" lon="-0.35251">
        <ele>151</ele>
        <time>2023-11-02T17:54:30Z</time>
      </trkpt>
      <trkpt lat="48.83368" lon="-0.35254">
        <ele>149</ele>
        <time>2023-11-02T17:54:49Z</time>
      </trkpt>
      <trkpt lat="48.83356" lon="-0.35264">
        <ele>146</ele>
        <time>2023-11-02T17:55:08Z</time>
      </trkpt>
      <trkpt lat="48.83356" lon="-0.35284">
        <ele>143</ele>
        <time>2023-11-02T17:55:25Z</time>
      </trkpt>
      <trkpt lat="48.83376" lon="-0.35343">
        <ele>139</ele>
        <time>2023-11-02T17:56:23Z</time>
      </trkpt>
      <trkpt lat="48.83395" lon="-0.35383">
        <ele>137</ele>
        <time>2023-11-02T17:57:07Z</time>
      </trkpt>
      <trkpt lat="48.83408" lon="-0.35426">
        <ele>134</ele>
        <time>2023-11-02T17:57:48Z</time>
      </trkpt>
      <trkpt lat="48.83399" lon="-0.35436">
        <ele>132</ele>
        <time>2023-11-02T17:58:03Z</time>
      </trkpt>
      <trkpt lat="48.83386" lon="-0.35441">
        <ele>129</ele>
        <time>2023-11-02T17:58:21Z</time>
      </trkpt>
      <trkpt lat="48.83368" lon="-0.35443">
        <ele>125</ele>
        <time>2023-11-02T17:58:45Z</time>
      </trkpt>
      <trkpt lat="48.83359" lon="-0.35438">
        <ele>124</ele>
        <time>2023-11-02T17:58:58Z</time>
      </trkpt>
      <trkpt lat="48.83329" lon="-0.35437">
        <ele>119</ele>
        <time>2023-11-02T17:59:38Z</time>
      </trkpt>
      <trkpt lat="48.83318" lon="-0.35447">
        <ele>118</ele>
        <time>2023-11-02T17:59:55Z</time>
      </trkpt>
      <trkpt lat="48.83311" lon="-0.35434">
        <ele>119</ele>
        <time>2023-11-02T18:00:10Z</time>
      </trkpt>
      <trkpt lat="48.83306" lon="-0.35432">
        <ele>119</ele>
        <time>2023-11-02T18:00:17Z</time>
      </trkpt>
      <trkpt lat="48.83284" lon="-0.35452">
        <ele>116</ele>
        <time>2023-11-02T18:00:51Z</time>
      </trkpt>
      <trkpt lat="48.83266" lon="-0.35455">
        <ele>115</ele>
        <time>2023-11-02T18:01:15Z</time>
      </trkpt>
      <trkpt lat="48.83265" lon="-0.35476">
        <ele>113</ele>
        <time>2023-11-02T18:01:34Z</time>
      </trkpt>
      <trkpt lat="48.83233" lon="-0.35571">
        <ele>107</ele>
        <time>2023-11-02T18:03:07Z</time>
      </trkpt>
      <trkpt lat="48.83234" lon="-0.35584">
        <ele>106</ele>
        <time>2023-11-02T18:03:19Z</time>
      </trkpt>
      <trkpt lat="48.83229" lon="-0.35587">
        <ele>106</ele>
        <time>2023-11-02T18:03:26Z</time>
      </trkpt>
      <trkpt lat="48.83222" lon="-0.35608">
        <ele>105</ele>
        <time>2023-11-02T18:03:47Z</time>
      </trkpt>
      <trkpt lat="48.8321" lon="-0.3567">
        <ele>101</ele>
        <time>2023-11-02T18:04:44Z</time>
      </trkpt>
      <trkpt lat="48.83209" lon="-0.35688">
        <ele>100</ele>
        <time>2023-11-02T18:04:59Z</time>
      </trkpt>
      <trkpt lat="48.83217" lon="-0.35718">
        <ele>98</ele>
        <time>2023-11-02T18:05:28Z</time>
      </trkpt>
      <trkpt lat="48.83199" lon="-0.35783">
        <ele>96</ele>
        <time>2023-11-02T18:06:30Z</time>
      </trkpt>
      <trkpt lat="48.83201" lon="-0.35836">
        <ele>93</ele>
        <time>2023-11-02T18:07:16Z</time>
      </trkpt>
      <trkpt lat="48.83198" lon="-0.35855">
        <ele>93</ele>
        <time>2023-11-02T18:07:34Z</time>
      </trkpt>
      <trkpt lat="48.83182" lon="-0.35888">
        <ele>91</ele>
        <time>2023-11-02T18:08:10Z</time>
      </trkpt>
      <trkpt lat="48.83181" lon="-0.35902">
        <ele>90</ele>
        <time>2023-11-02T18:08:22Z</time>
      </trkpt>
      <trkpt lat="48.83165" lon="-0.35953">
        <ele>85</ele>
        <time>2023-11-02T18:09:12Z</time>
      </trkpt>
      <trkpt lat="48.83165" lon="-0.35974">
        <ele>83</ele>
        <time>2023-11-02T18:09:30Z</time>
      </trkpt>
      <trkpt lat="48.83138" lon="-0.36034">
        <ele>77</ele>
        <time>2023-11-02T18:10:34Z</time>
      </trkpt>
      <trkpt lat="48.83135" lon="-0.36051">
        <ele>76</ele>
        <time>2023-11-02T18:10:49Z</time>
      </trkpt>
      <trkpt lat="48.83129" lon="-0.36061">
        <ele>75</ele>
        <time>2023-11-02T18:11:01Z</time>
      </trkpt>
      <trkpt lat="48.83121" lon="-0.36062">
        <ele>75</ele>
        <time>2023-11-02T18:11:12Z</time>
      </trkpt>
      <trkpt lat="48.83119" lon="-0.36067">
        <ele>74</ele>
        <time>2023-11-02T18:11:17Z</time>
      </trkpt>
      <trkpt lat="48.83111" lon="-0.36053">
        <ele>74</ele>
        <time>2023-11-02T18:11:33Z</time>
      </trkpt>
      <trkpt lat="48.83094" lon="-0.36039">
        <ele>74</ele>
        <time>2023-11-02T18:11:59Z</time>
      </trkpt>
      <trkpt lat="48.83082" lon="-0.36033">
        <ele>73</ele>
        <time>2023-11-02T18:12:16Z</time>
      </trkpt>
      <trkpt lat="48.83079" lon="-0.36037">
        <ele>73</ele>
        <time>2023-11-02T18:12:21Z</time>
      </trkpt>
      <trkpt lat="48.8307" lon="-0.36017">
        <ele>73</ele>
        <time>2023-11-02T18:12:43Z</time>
      </trkpt>
      <trkpt lat="48.83059" lon="-0.3601">
        <ele>72</ele>
        <time>2023-11-02T18:12:59Z</time>
      </trkpt>
      <trkpt lat="48.83045" lon="-0.3599">
        <ele>70</ele>
        <time>2023-11-02T18:13:24Z</time>
      </trkpt>
      <trkpt lat="48.83032" lon="-0.35945">
        <ele>71</ele>
        <time>2023-11-02T18:14:07Z</time>
      </trkpt>
      <trkpt lat="48.83017" lon="-0.35924">
        <ele>70</ele>
        <time>2023-11-02T18:14:35Z</time>
      </trkpt>
      <trkpt lat="48.82998" lon="-0.3588">
        <ele>71</ele>
        <time>2023-11-02T18:15:21Z</time>
      </trkpt>
      <trkpt lat="48.82986" lon="-0.35863">
        <ele>71</ele>
        <time>2023-11-02T18:15:43Z</time>
      </trkpt>
      <trkpt lat="48.82947" lon="-0.35785">
        <ele>73</ele>
        <time>2023-11-02T18:17:09Z</time>
      </trkpt>
      <trkpt lat="48.82935" lon="-0.35746">
        <ele>74</ele>
        <time>2023-11-02T18:17:47Z</time>
      </trkpt>
      <trkpt lat="48.82924" lon="-0.35729">
        <ele>74</ele>
        <time>2023-11-02T18:18:07Z</time>
      </trkpt>
      <trkpt lat="48.82891" lon="-0.35646">
        <ele>79</ele>
        <time>2023-11-02T18:19:33Z</time>
      </trkpt>
      <trkpt lat="48.82884" lon="-0.35642">
        <ele>78</ele>
        <time>2023-11-02T18:19:43Z</time>
      </trkpt>
      <trkpt lat="48.82879" lon="-0.35613">
        <ele>80</ele>
        <time>2023-11-02T18:20:09Z</time>
      </trkpt>
      <trkpt lat="48.8287" lon="-0.35601">
        <ele>79</ele>
        <time>2023-11-02T18:20:25Z</time>
      </trkpt>
      <trkpt lat="48.82867" lon="-0.35605">
        <ele>77</ele>
        <time>2023-11-02T18:20:30Z</time>
      </trkpt>
      <trkpt lat="48.82869" lon="-0.35614">
        <ele>77</ele>
        <time>2023-11-02T18:20:39Z</time>
      </trkpt>
      <trkpt lat="48.82871" lon="-0.35618">
        <ele>78</ele>
        <time>2023-11-02T18:20:43Z</time>
      </trkpt>
      <trkpt lat="48.82875" lon="-0.35616">
        <ele>79</ele>
        <time>2023-11-02T18:20:49Z</time>
      </trkpt>
      <trkpt lat="48.82877" lon="-0.35602">
        <ele>81</ele>
        <time>2023-11-02T18:21:01Z</time>
      </trkpt>
      <trkpt lat="48.82875" lon="-0.3557">
        <ele>84</ele>
        <time>2023-11-02T18:21:30Z</time>
      </trkpt>
      <trkpt lat="48.82869" lon="-0.35563">
        <ele>83</ele>
        <time>2023-11-02T18:21:40Z</time>
      </trkpt>
      <trkpt lat="48.82866" lon="-0.3555">
        <ele>84</ele>
        <time>2023-11-02T18:21:52Z</time>
      </trkpt>
      <trkpt lat="48.82851" lon="-0.35524">
        <ele>81</ele>
        <time>2023-11-02T18:22:22Z</time>
      </trkpt>
      <trkpt lat="48.8284" lon="-0.35524">
        <ele>76</ele>
        <time>2023-11-02T18:22:37Z</time>
      </trkpt>
      <trkpt lat="48.82831" lon="-0.35512">
        <ele>75</ele>
        <time>2023-11-02T18:22:53Z</time>
      </trkpt>
      <trkpt lat="48.82825" lon="-0.3549">
        <ele>77</ele>
        <time>2023-11-02T18:23:14Z</time>
      </trkpt>
      <trkpt lat="48.82806" lon="-0.35451">
        <ele>81</ele>
        <time>2023-11-02T18:23:56Z</time>
      </trkpt>
      <trkpt lat="48.82784" lon="-0.35425">
        <ele>79</ele>
        <time>2023-11-02T18:24:33Z</time>
      </trkpt>
      <trkpt lat="48.82761" lon="-0.35372">
        <ele>80</ele>
        <time>2023-11-02T18:25:29Z</time>
      </trkpt>
      <trkpt lat="48.8274" lon="-0.3535">
        <ele>78</ele>
        <time>2023-11-02T18:26:03Z</time>
      </trkpt>
      <trkpt lat="48.82721" lon="-0.35303">
        <ele>81</ele>
        <time>2023-11-02T18:26:52Z</time>
      </trkpt>
      <trkpt lat="48.82689" lon="-0.35259">
        <ele>78</ele>
        <time>2023-11-02T18:27:49Z</time>
      </trkpt>
      <trkpt lat="48.8267" lon="-0.35225">
        <ele>77</ele>
        <time>2023-11-02T18:28:29Z</time>
      </trkpt>
      <trkpt lat="48.82654" lon="-0.35212">
        <ele>76</ele>
        <time>2023-11-02T18:28:53Z</time>
      </trkpt>
      <trkpt lat="48.82633" lon="-0.35165">
        <ele>79</ele>
        <time>2023-11-02T18:29:43Z</time>
      </trkpt>
      <trkpt lat="48.82618" lon="-0.35148">
        <ele>77</ele>
        <time>2023-11-02T18:30:08Z</time>
      </trkpt>
      <trkpt lat="48.82615" lon="-0.35131">
        <ele>79</ele>
        <time>2023-11-02T18:30:23Z</time>
      </trkpt>
      <trkpt lat="48.82607" lon="-0.35125">
        <ele>77</ele>
        <time>2023-11-02T18:30:35Z</time>
      </trkpt>
      <trkpt lat="48.82582" lon="-0.3507">
        <ele>77</ele>
        <time>2023-11-02T18:31:34Z</time>
      </trkpt>
      <trkpt lat="48.82569" lon="-0.35058">
        <ele>77</ele>
        <time>2023-11-02T18:31:54Z</time>
      </trkpt>
      <trkpt lat="48.8256" lon="-0.3504">
        <ele>77</ele>
        <time>2023-11-02T18:32:14Z</time>
      </trkpt>
      <trkpt lat="48.82535" lon="-0.35018">
        <ele>74</ele>
        <time>2023-11-02T18:32:52Z</time>
      </trkpt>
      <trkpt lat="48.82497" lon="-0.34931">
        <ele>78</ele>
        <time>2023-11-02T18:34:24Z</time>
      </trkpt>
      <trkpt lat="48.82495" lon="-0.34928">
        <ele>78</ele>
        <time>2023-11-02T18:34:28Z</time>
      </trkpt>
      <trkpt lat="48.82495" lon="-0.34943">
        <ele>76</ele>
        <time>2023-11-02T18:34:41Z</time>
      </trkpt>
      <trkpt lat="48.82494" lon="-0.34926">
        <ele>78</ele>
        <time>2023-11-02T18:34:56Z</time>
      </trkpt>
      <trkpt lat="48.82479" lon="-0.34917">
        <ele>76</ele>
        <time>2023-11-02T18:35:18Z</time>
      </trkpt>
      <trkpt lat="48.82451" lon="-0.34867">
        <ele>77</ele>
        <time>2023-11-02T18:36:15Z</time>
      </trkpt>
      <trkpt lat="48.82436" lon="-0.34816">
        <ele>79</ele>
        <time>2023-11-02T18:37:04Z</time>
      </trkpt>
      <trkpt lat="48.82422" lon="-0.348">
        <ele>76</ele>
        <time>2023-11-02T18:37:28Z</time>
      </trkpt>
      <trkpt lat="48.82407" lon="-0.34765">
        <ele>77</ele>
        <time>2023-11-02T18:38:04Z</time>
      </trkpt>
      <trkpt lat="48.8239" lon="-0.34716">
        <ele>78</ele>
        <time>2023-11-02T18:38:53Z</time>
      </trkpt>
      <trkpt lat="48.82382" lon="-0.34661">
        <ele>81</ele>
        <time>2023-11-02T18:39:43Z</time>
      </trkpt>
      <trkpt lat="48.82375" lon="-0.34645">
        <ele>81</ele>
        <time>2023-11-02T18:39:59Z</time>
      </trkpt>
      <trkpt lat="48.82367" lon="-0.34637">
        <ele>79</ele>
        <time>2023-11-02T18:40:12Z</time>
      </trkpt>
      <trkpt lat="48.82349" lon="-0.34589">
        <ele>79</ele>
        <time>2023-11-02T18:41:01Z</time>
      </trkpt>
      <trkpt lat="48.82337" lon="-0.34534">
        <ele>79</ele>
        <time>2023-11-02T18:41:52Z</time>
      </trkpt>
      <trkpt lat="48.82308" lon="-0.34451">
        <ele>79</ele>
        <time>2023-11-02T18:43:14Z</time>
      </trkpt>
      <trkpt lat="48.82273" lon="-0.34289">
        <ele>80</ele>
        <time>2023-11-02T18:45:44Z</time>
      </trkpt>
      <trkpt lat="48.82265" lon="-0.3418">
        <ele>83</ele>
        <time>2023-11-02T18:47:20Z</time>
      </trkpt>
      <trkpt lat="48.82268" lon="-0.34141">
        <ele>85</ele>
        <time>2023-11-02T18:47:55Z</time>
      </trkpt>
      <trkpt lat="48.82263" lon="-0.33986">
        <ele>79</ele>
        <time>2023-11-02T18:50:11Z</time>
      </trkpt>
      <trkpt lat="48.82274" lon="-0.33926">
        <ele>83</ele>
        <time>2023-11-02T18:51:06Z</time>
      </trkpt>
      <trkpt lat="48.82275" lon="-0.33847">
        <ele>86</ele>
        <time>2023-11-02T18:52:15Z</time>
      </trkpt>
      <trkpt lat="48.8227" lon="-0.33813">
        <ele>86</ele>
        <time>2023-11-02T18:52:46Z</time>
      </trkpt>
      <trkpt lat="48.82262" lon="-0.33789">
        <ele>83</ele>
        <time>2023-11-02T18:53:10Z</time>
      </trkpt>
      <trkpt lat="48.82258" lon="-0.33726">
        <ele>87</ele>
        <time>2023-11-02T18:54:05Z</time>
      </trkpt>
      <trkpt lat="48.82247" lon="-0.33686">
        <ele>85</ele>
        <time>2023-11-02T18:54:43Z</time>
      </trkpt>
      <trkpt lat="48.82229" lon="-0.33655">
        <ele>83</ele>
        <time>2023-11-02T18:55:20Z</time>
      </trkpt>
      <trkpt lat="48.82225" lon="-0.33636">
        <ele>82</ele>
        <time>2023-11-02T18:55:37Z</time>
      </trkpt>
      <trkpt lat="48.82212" lon="-0.33629">
        <ele>79</ele>
        <time>2023-11-02T18:55:56Z</time>
      </trkpt>
      <trkpt lat="48.82163" lon="-0.33656">
        <ele>67</ele>
        <time>2023-11-02T18:57:05Z</time>
      </trkpt>
      <trkpt lat="48.82115" lon="-0.33672">
        <ele>69</ele>
        <time>2023-11-02T18:58:11Z</time>
      </trkpt>
      <trkpt lat="48.82094" lon="-0.33674">
        <ele>70</ele>
        <time>2023-11-02T18:58:39Z</time>
      </trkpt>
      <trkpt lat="48.82083" lon="-0.3368">
        <ele>71</ele>
        <time>2023-11-02T18:58:54Z</time>
      </trkpt>
      <trkpt lat="48.82056" lon="-0.33668">
        <ele>72</ele>
        <time>2023-11-02T18:59:32Z</time>
      </trkpt>
      <trkpt lat="48.82024" lon="-0.33664">
        <ele>74</ele>
        <time>2023-11-02T19:00:15Z</time>
      </trkpt>
      <trkpt lat="48.8202" lon="-0.33669">
        <ele>75</ele>
        <time>2023-11-02T19:00:22Z</time>
      </trkpt>
      <trkpt lat="48.82024" lon="-0.33677">
        <ele>75</ele>
        <time>2023-11-02T19:00:30Z</time>
      </trkpt>
      <trkpt lat="48.8202" lon="-0.33677">
        <ele>76</ele>
        <time>2023-11-02T19:00:36Z</time>
      </trkpt>
      <trkpt lat="48.82024" lon="-0.3368">
        <ele>76</ele>
        <time>2023-11-02T19:00:42Z</time>
      </trkpt>
      <trkpt lat="48.82019" lon="-0.33674">
        <ele>75</ele>
        <time>2023-11-02T19:00:50Z</time>
      </trkpt>
      <trkpt lat="48.82017" lon="-0.33679">
        <ele>76</ele>
        <time>2023-11-02T19:00:55Z</time>
      </trkpt>
      <trkpt lat="48.82021" lon="-0.33674">
        <ele>75</ele>
        <time>2023-11-02T19:01:02Z</time>
      </trkpt>
      <trkpt lat="48.82018" lon="-0.33671">
        <ele>75</ele>
        <time>2023-11-02T19:01:07Z</time>
      </trkpt>
      <trkpt lat="48.82022" lon="-0.33678">
        <ele>76</ele>
        <time>2023-11-02T19:01:15Z</time>
      </trkpt>
      <trkpt lat="48.82018" lon="-0.33671">
        <ele>75</ele>
        <time>2023-11-02T19:01:23Z</time>
      </trkpt>
      <trkpt lat="48.82025" lon="-0.33674">
        <ele>75</ele>
        <time>2023-11-02T19:01:33Z</time>
      </trkpt>
      <trkpt lat="48.82019" lon="-0.33675">
        <ele>76</ele>
        <time>2023-11-02T19:01:41Z</time>
      </trkpt>
      <trkpt lat="48.82027" lon="-0.33675">
        <ele>75</ele>
        <time>2023-11-02T19:01:52Z</time>
      </trkpt>
      <trkpt lat="48.82021" lon="-0.33673">
        <ele>75</ele>
        <time>2023-11-02T19:02:00Z</time>
      </trkpt>
      <trkpt lat="48.8202" lon="-0.33666">
        <ele>74</ele>
        <time>2023-11-02T19:02:06Z</time>
      </trkpt>
      <trkpt lat="48.8202" lon="-0.33672">
        <ele>75</ele>
        <time>2023-11-02T19:02:12Z</time>
      </trkpt>
      <trkpt lat="48.82015" lon="-0.33668">
        <ele>75</ele>
        <time>2023-11-02T19:02:19Z</time>
      </trkpt>
      <trkpt lat="48.82018" lon="-0.33666">
        <ele>75</ele>
        <time>2023-11-02T19:02:24Z</time>
      </trkpt>
      <trkpt lat="48.82018" lon="-0.33669">
        <ele>75</ele>
        <time>2023-11-02T19:02:26Z</time>
      </trkpt>
      <trkpt lat="48.82009" lon="-0.33666">
        <ele>75</ele>
        <time>2023-11-02T19:02:38Z</time>
      </trkpt>
      <trkpt lat="48.81992" lon="-0.33684">
        <ele>78</ele>
        <time>2023-11-02T19:03:06Z</time>
      </trkpt>
      <trkpt lat="48.81959" lon="-0.33689">
        <ele>80</ele>
        <time>2023-11-02T19:03:50Z</time>
      </trkpt>
      <trkpt lat="48.81922" lon="-0.33728">
        <ele>85</ele>
        <time>2023-11-02T19:04:50Z</time>
      </trkpt>
      <trkpt lat="48.81902" lon="-0.33742">
        <ele>87</ele>
        <time>2023-11-02T19:05:20Z</time>
      </trkpt>
      <trkpt lat="48.81864" lon="-0.33784">
        <ele>92</ele>
        <time>2023-11-02T19:06:23Z</time>
      </trkpt>
      <trkpt lat="48.8185" lon="-0.33807">
        <ele>95</ele>
        <time>2023-11-02T19:06:50Z</time>
      </trkpt>
      <trkpt lat="48.81829" lon="-0.33819">
        <ele>97</ele>
        <time>2023-11-02T19:07:20Z</time>
      </trkpt>
      <trkpt lat="48.818" lon="-0.33853">
        <ele>104</ele>
        <time>2023-11-02T19:08:09Z</time>
      </trkpt>
      <trkpt lat="48.81761" lon="-0.33869">
        <ele>110</ele>
        <time>2023-11-02T19:09:03Z</time>
      </trkpt>
      <trkpt lat="48.81739" lon="-0.33886">
        <ele>114</ele>
        <time>2023-11-02T19:09:36Z</time>
      </trkpt>
      <trkpt lat="48.81724" lon="-0.33881">
        <ele>117</ele>
        <time>2023-11-02T19:09:56Z</time>
      </trkpt>
      <trkpt lat="48.81647" lon="-0.33729">
        <ele>129</ele>
        <time>2023-11-02T19:12:45Z</time>
      </trkpt>
      <trkpt lat="48.81618" lon="-0.33693">
        <ele>132</ele>
        <time>2023-11-02T19:13:35Z</time>
      </trkpt>
      <trkpt lat="48.81584" lon="-0.33672">
        <ele>137</ele>
        <time>2023-11-02T19:14:24Z</time>
      </trkpt>
      <trkpt lat="48.81555" lon="-0.33664">
        <ele>141</ele>
        <time>2023-11-02T19:15:03Z</time>
      </trkpt>
      <trkpt lat="48.81541" lon="-0.33656">
        <ele>142</ele>
        <time>2023-11-02T19:15:23Z</time>
      </trkpt>
      <trkpt lat="48.81521" lon="-0.33658">
        <ele>145</ele>
        <time>2023-11-02T19:15:50Z</time>
      </trkpt>
      <trkpt lat="48.81511" lon="-0.33665">
        <ele>147</ele>
        <time>2023-11-02T19:16:04Z</time>
      </trkpt>
      <trkpt lat="48.81497" lon="-0.33667">
        <ele>149</ele>
        <time>2023-11-02T19:16:23Z</time>
      </trkpt>
      <trkpt lat="48.81492" lon="-0.33671">
        <ele>150</ele>
        <time>2023-11-02T19:16:31Z</time>
      </trkpt>
      <trkpt lat="48.81493" lon="-0.33692">
        <ele>152</ele>
        <time>2023-11-02T19:16:49Z</time>
      </trkpt>
      <trkpt lat="48.81521" lon="-0.33752">
        <ele>153</ele>
        <time>2023-11-02T19:17:54Z</time>
      </trkpt>
      <trkpt lat="48.81544" lon="-0.33823">
        <ele>157</ele>
        <time>2023-11-02T19:19:03Z</time>
      </trkpt>
      <trkpt lat="48.8155" lon="-0.33877">
        <ele>159</ele>
        <time>2023-11-02T19:19:52Z</time>
      </trkpt>
      <trkpt lat="48.81544" lon="-0.33915">
        <ele>162</ele>
        <time>2023-11-02T19:20:26Z</time>
      </trkpt>
      <trkpt lat="48.81529" lon="-0.33946">
        <ele>166</ele>
        <time>2023-11-02T19:21:00Z</time>
      </trkpt>
      <trkpt lat="48.81525" lon="-0.33974">
        <ele>168</ele>
        <time>2023-11-02T19:21:25Z</time>
      </trkpt>
      <trkpt lat="48.81482" lon="-0.34109">
        <ele>182</ele>
        <time>2023-11-02T19:23:37Z</time>
      </trkpt>
      <trkpt lat="48.81479" lon="-0.34128">
        <ele>182</ele>
        <time>2023-11-02T19:23:54Z</time>
      </trkpt>
      <trkpt lat="48.81467" lon="-0.34145">
        <ele>184</ele>
        <time>2023-11-02T19:24:16Z</time>
      </trkpt>
      <trkpt lat="48.81458" lon="-0.34168">
        <ele>185</ele>
        <time>2023-11-02T19:24:39Z</time>
      </trkpt>
      <trkpt lat="48.81406" lon="-0.34203">
        <ele>192</ele>
        <time>2023-11-02T19:25:55Z</time>
      </trkpt>
      <trkpt lat="48.81384" lon="-0.34208">
        <ele>195</ele>
        <time>2023-11-02T19:26:25Z</time>
      </trkpt>
      <trkpt lat="48.81378" lon="-0.34204">
        <ele>196</ele>
        <time>2023-11-02T19:26:34Z</time>
      </trkpt>
      <trkpt lat="48.81381" lon="-0.34205">
        <ele>196</ele>
        <time>2023-11-02T19:26:38Z</time>
      </trkpt>
      <trkpt lat="48.81379" lon="-0.34213">
        <ele>196</ele>
        <time>2023-11-02T19:26:45Z</time>
      </trkpt>
      <trkpt lat="48.81375" lon="-0.3421">
        <ele>196</ele>
        <time>2023-11-02T19:26:51Z</time>
      </trkpt>
      <trkpt lat="48.81398" lon="-0.34284">
        <ele>195</ele>
        <time>2023-11-02T19:28:03Z</time>
      </trkpt>
      <trkpt lat="48.81429" lon="-0.34331">
        <ele>194</ele>
        <time>2023-11-02T19:29:02Z</time>
      </trkpt>
      <trkpt lat="48.81442" lon="-0.34342">
        <ele>193</ele>
        <time>2023-11-02T19:29:21Z</time>
      </trkpt>
      <trkpt lat="48.81461" lon="-0.34383">
        <ele>192</ele>
        <time>2023-11-02T19:30:05Z</time>
      </trkpt>
      <trkpt lat="48.81473" lon="-0.34422">
        <ele>193</ele>
        <time>2023-11-02T19:30:43Z</time>
      </trkpt>
      <trkpt lat="48.81489" lon="-0.34455">
        <ele>192</ele>
        <time>2023-11-02T19:31:19Z</time>
      </trkpt>
      <trkpt lat="48.81501" lon="-0.34509">
        <ele>193</ele>
        <time>2023-11-02T19:32:09Z</time>
      </trkpt>
      <trkpt lat="48.81515" lon="-0.34548">
        <ele>194</ele>
        <time>2023-11-02T19:32:48Z</time>
      </trkpt>
      <trkpt lat="48.81545" lon="-0.34601">
        <ele>193</ele>
        <time>2023-11-02T19:33:50Z</time>
      </trkpt>
      <trkpt lat="48.8157" lon="-0.34636">
        <ele>191</ele>
        <time>2023-11-02T19:34:35Z</time>
      </trkpt>
      <trkpt lat="48.81591" lon="-0.34693">
        <ele>190</ele>
        <time>2023-11-02T19:35:33Z</time>
      </trkpt>
      <trkpt lat="48.81621" lon="-0.34752">
        <ele>189</ele>
        <time>2023-11-02T19:36:38Z</time>
      </trkpt>
      <trkpt lat="48.8167" lon="-0.34892">
        <ele>199</ele>
        <time>2023-11-02T19:38:57Z</time>
      </trkpt>
      <trkpt lat="48.81674" lon="-0.3493">
        <ele>201</ele>
        <time>2023-11-02T19:39:31Z</time>
      </trkpt>
      <trkpt lat="48.81674" lon="-0.34969">
        <ele>204</ele>
        <time>2023-11-02T19:40:05Z</time>
      </trkpt>
      <trkpt lat="48.81661" lon="-0.35014">
        <ele>208</ele>
        <time>2023-11-02T19:40:49Z</time>
      </trkpt>
      <trkpt lat="48.81657" lon="-0.35048">
        <ele>209</ele>
        <time>2023-11-02T19:41:19Z</time>
      </trkpt>
      <trkpt lat="48.81648" lon="-0.35074">
        <ele>210</ele>
        <time>2023-11-02T19:41:45Z</time>
      </trkpt>
      <trkpt lat="48.8165" lon="-0.35072">
        <ele>210</ele>
        <time>2023-11-02T19:41:48Z</time>
      </trkpt>
      <trkpt lat="48.81651" lon="-0.35075">
        <ele>210</ele>
        <time>2023-11-02T19:41:51Z</time>
      </trkpt>
      <trkpt lat="48.81618" lon="-0.35167">
        <ele>211</ele>
        <time>2023-11-02T19:43:23Z</time>
      </trkpt>
      <trkpt lat="48.81585" lon="-0.352">
        <ele>211</ele>
        <time>2023-11-02T19:44:16Z</time>
      </trkpt>
      <trkpt lat="48.81575" lon="-0.35215">
        <ele>211</ele>
        <time>2023-11-02T19:44:34Z</time>
      </trkpt>
      <trkpt lat="48.81535" lon="-0.35247">
        <ele>213</ele>
        <time>2023-11-02T19:45:35Z</time>
      </trkpt>
      <trkpt lat="48.815" lon="-0.35284">
        <ele>217</ele>
        <time>2023-11-02T19:46:32Z</time>
      </trkpt>
      <trkpt lat="48.81472" lon="-0.35288">
        <ele>220</ele>
        <time>2023-11-02T19:47:09Z</time>
      </trkpt>
      <trkpt lat="48.81467" lon="-0.35293">
        <ele>220</ele>
        <time>2023-11-02T19:47:17Z</time>
      </trkpt>
      <trkpt lat="48.81423" lon="-0.3531">
        <ele>225</ele>
        <time>2023-11-02T19:48:18Z</time>
      </trkpt>
      <trkpt lat="48.81413" lon="-0.35323">
        <ele>226</ele>
        <time>2023-11-02T19:48:35Z</time>
      </trkpt>
      <trkpt lat="48.81404" lon="-0.35326">
        <ele>227</ele>
        <time>2023-11-02T19:48:48Z</time>
      </trkpt>
      <trkpt lat="48.81397" lon="-0.35339">
        <ele>227</ele>
        <time>2023-11-02T19:49:02Z</time>
      </trkpt>
      <trkpt lat="48.81387" lon="-0.35341">
        <ele>228</ele>
        <time>2023-11-02T19:49:16Z</time>
      </trkpt>
      <trkpt lat="48.8136" lon="-0.35373">
        <ele>229</ele>
        <time>2023-11-02T19:50:02Z</time>
      </trkpt>
      <trkpt lat="48.81361" lon="-0.35384">
        <ele>229</ele>
        <time>2023-11-02T19:50:11Z</time>
      </trkpt>
      <trkpt lat="48.81369" lon="-0.35398">
        <ele>228</ele>
        <time>2023-11-02T19:50:28Z</time>
      </trkpt>
      <trkpt lat="48.81382" lon="-0.35479">
        <ele>227</ele>
        <time>2023-11-02T19:51:41Z</time>
      </trkpt>
      <trkpt lat="48.814" lon="-0.35554">
        <ele>227</ele>
        <time>2023-11-02T19:52:51Z</time>
      </trkpt>
      <trkpt lat="48.81417" lon="-0.35606">
        <ele>226</ele>
        <time>2023-11-02T19:53:42Z</time>
      </trkpt>
      <trkpt lat="48.81431" lon="-0.35722">
        <ele>225</ele>
        <time>2023-11-02T19:55:26Z</time>
      </trkpt>
      <trkpt lat="48.81422" lon="-0.35742">
        <ele>226</ele>
        <time>2023-11-02T19:55:47Z</time>
      </trkpt>
      <trkpt lat="48.81426" lon="-0.35727">
        <ele>226</ele>
        <time>2023-11-02T19:56:01Z</time>
      </trkpt>
      <trkpt lat="48.81431" lon="-0.35723">
        <ele>225</ele>
        <time>2023-11-02T19:56:09Z</time>
      </trkpt>
      <trkpt lat="48.81443" lon="-0.35743">
        <ele>224</ele>
        <time>2023-11-02T19:56:33Z</time>
      </trkpt>
      <trkpt lat="48.81449" lon="-0.35767">
        <ele>224</ele>
        <time>2023-11-02T19:56:55Z</time>
      </trkpt>
      <trkpt lat="48.81457" lon="-0.35777">
        <ele>223</ele>
        <time>2023-11-02T19:57:09Z</time>
      </trkpt>
      <trkpt lat="48.81486" lon="-0.35789">
        <ele>220</ele>
        <time>2023-11-02T19:57:49Z</time>
      </trkpt>
      <trkpt lat="48.81512" lon="-0.35821">
        <ele>219</ele>
        <time>2023-11-02T19:58:34Z</time>
      </trkpt>
      <trkpt lat="48.8155" lon="-0.35835">
        <ele>219</ele>
        <time>2023-11-02T19:59:26Z</time>
      </trkpt>
      <trkpt lat="48.81551" lon="-0.35914">
        <ele>224</ele>
        <time>2023-11-02T20:00:35Z</time>
      </trkpt>
      <trkpt lat="48.81547" lon="-0.35922">
        <ele>224</ele>
        <time>2023-11-02T20:00:44Z</time>
      </trkpt>
      <trkpt lat="48.81535" lon="-0.35933">
        <ele>225</ele>
        <time>2023-11-02T20:01:03Z</time>
      </trkpt>
      <trkpt lat="48.81488" lon="-0.3596">
        <ele>226</ele>
        <time>2023-11-02T20:02:10Z</time>
      </trkpt>
      <trkpt lat="48.81471" lon="-0.35979">
        <ele>227</ele>
        <time>2023-11-02T20:02:38Z</time>
      </trkpt>
      <trkpt lat="48.81467" lon="-0.35994">
        <ele>228</ele>
        <time>2023-11-02T20:02:52Z</time>
      </trkpt>
      <trkpt lat="48.81468" lon="-0.3603">
        <ele>230</ele>
        <time>2023-11-02T20:03:24Z</time>
      </trkpt>
      <trkpt lat="48.81484" lon="-0.36055">
        <ele>231</ele>
        <time>2023-11-02T20:03:55Z</time>
      </trkpt>
      <trkpt lat="48.81483" lon="-0.36084">
        <ele>233</ele>
        <time>2023-11-02T20:04:20Z</time>
      </trkpt>
      <trkpt lat="48.81505" lon="-0.36178">
        <ele>233</ele>
        <time>2023-11-02T20:05:48Z</time>
      </trkpt>
      <trkpt lat="48.81517" lon="-0.3618">
        <ele>234</ele>
        <time>2023-11-02T20:06:04Z</time>
      </trkpt>
      <trkpt lat="48.81528" lon="-0.36187">
        <ele>234</ele>
        <time>2023-11-02T20:06:20Z</time>
      </trkpt>
      <trkpt lat="48.81534" lon="-0.36217">
        <ele>235</ele>
        <time>2023-11-02T20:06:47Z</time>
      </trkpt>
      <trkpt lat="48.8154" lon="-0.36226">
        <ele>235</ele>
        <time>2023-11-02T20:06:59Z</time>
      </trkpt>
      <trkpt lat="48.81595" lon="-0.36274">
        <ele>236</ele>
        <time>2023-11-02T20:08:23Z</time>
      </trkpt>
      <trkpt lat="48.81601" lon="-0.36286">
        <ele>236</ele>
        <time>2023-11-02T20:08:37Z</time>
      </trkpt>
      <trkpt lat="48.81633" lon="-0.3631">
        <ele>235</ele>
        <time>2023-11-02T20:09:24Z</time>
      </trkpt>
      <trkpt lat="48.81658" lon="-0.36322">
        <ele>234</ele>
        <time>2023-11-02T20:09:59Z</time>
      </trkpt>
      <trkpt lat="48.81669" lon="-0.36353">
        <ele>233</ele>
        <time>2023-11-02T20:10:30Z</time>
      </trkpt>
      <trkpt lat="48.817" lon="-0.36381">
        <ele>234</ele>
        <time>2023-11-02T20:11:18Z</time>
      </trkpt>
      <trkpt lat="48.81722" lon="-0.36386">
        <ele>235</ele>
        <time>2023-11-02T20:11:48Z</time>
      </trkpt>
      <trkpt lat="48.81762" lon="-0.36379">
        <ele>235</ele>
        <time>2023-11-02T20:12:42Z</time>
      </trkpt>
      <trkpt lat="48.81792" lon="-0.36385">
        <ele>235</ele>
        <time>2023-11-02T20:13:22Z</time>
      </trkpt>
      <trkpt lat="48.81824" lon="-0.36409">
        <ele>236</ele>
        <time>2023-11-02T20:14:10Z</time>
      </trkpt>
      <trkpt lat="48.81839" lon="-0.3643">
        <ele>236</ele>
        <time>2023-11-02T20:14:37Z</time>
      </trkpt>
      <trkpt lat="48.81855" lon="-0.36443">
        <ele>236</ele>
        <time>2023-11-02T20:15:01Z</time>
      </trkpt>
      <trkpt lat="48.81888" lon="-0.36451">
        <ele>235</ele>
        <time>2023-11-02T20:15:46Z</time>
      </trkpt>
      <trkpt lat="48.81919" lon="-0.36478">
        <ele>234</ele>
        <time>2023-11-02T20:16:33Z</time>
      </trkpt>
      <trkpt lat="48.81941" lon="-0.36521">
        <ele>234</ele>
        <time>2023-11-02T20:17:21Z</time>
      </trkpt>
      <trkpt lat="48.81945" lon="-0.36541">
        <ele>233</ele>
        <time>2023-11-02T20:17:40Z</time>
      </trkpt>
      <trkpt lat="48.81953" lon="-0.36557">
        <ele>232</ele>
        <time>2023-11-02T20:17:57Z</time>
      </trkpt>
      <trkpt lat="48.81989" lon="-0.36601">
        <ele>230</ele>
        <time>2023-11-02T20:18:59Z</time>
      </trkpt>
      <trkpt lat="48.81995" lon="-0.36617">
        <ele>229</ele>
        <time>2023-11-02T20:19:15Z</time>
      </trkpt>
      <trkpt lat="48.82027" lon="-0.36642">
        <ele>226</ele>
        <time>2023-11-02T20:20:03Z</time>
      </trkpt>
      <trkpt lat="48.82049" lon="-0.36688">
        <ele>223</ele>
        <time>2023-11-02T20:20:53Z</time>
      </trkpt>
      <trkpt lat="48.82076" lon="-0.36722">
        <ele>220</ele>
        <time>2023-11-02T20:21:40Z</time>
      </trkpt>
      <trkpt lat="48.82108" lon="-0.36802">
        <ele>220</ele>
        <time>2023-11-02T20:23:02Z</time>
      </trkpt>
      <trkpt lat="48.82123" lon="-0.36828">
        <ele>219</ele>
        <time>2023-11-02T20:23:32Z</time>
      </trkpt>
      <trkpt lat="48.8213" lon="-0.3686">
        <ele>219</ele>
        <time>2023-11-02T20:24:02Z</time>
      </trkpt>
      <trkpt lat="48.82141" lon="-0.36874">
        <ele>217</ele>
        <time>2023-11-02T20:24:21Z</time>
      </trkpt>
      <trkpt lat="48.82152" lon="-0.36917">
        <ele>216</ele>
        <time>2023-11-02T20:25:02Z</time>
      </trkpt>
      <trkpt lat="48.82164" lon="-0.36944">
        <ele>215</ele>
        <time>2023-11-02T20:25:30Z</time>
      </trkpt>
      <trkpt lat="48.82176" lon="-0.36958">
        <ele>214</ele>
        <time>2023-11-02T20:25:51Z</time>
      </trkpt>
      <trkpt lat="48.8218" lon="-0.36958">
        <ele>214</ele>
        <time>2023-11-02T20:25:56Z</time>
      </trkpt>
      <trkpt lat="48.8222" lon="-0.36915">
        <ele>213</ele>
        <time>2023-11-02T20:27:01Z</time>
      </trkpt>
      <trkpt lat="48.82223" lon="-0.36916">
        <ele>213</ele>
        <time>2023-11-02T20:27:05Z</time>
      </trkpt>
      <trkpt lat="48.8222" lon="-0.36918">
        <ele>213</ele>
        <time>2023-11-02T20:27:10Z</time>
      </trkpt>
      <trkpt lat="48.8223" lon="-0.36928">
        <ele>213</ele>
        <time>2023-11-02T20:27:26Z</time>
      </trkpt>
      <trkpt lat="48.82238" lon="-0.36946">
        <ele>213</ele>
        <time>2023-11-02T20:27:45Z</time>
      </trkpt>
      <trkpt lat="48.82243" lon="-0.36995">
        <ele>213</ele>
        <time>2023-11-02T20:28:28Z</time>
      </trkpt>
      <trkpt lat="48.82298" lon="-0.37137">
        <ele>206</ele>
        <time>2023-11-02T20:30:53Z</time>
      </trkpt>
      <trkpt lat="48.82321" lon="-0.37183">
        <ele>203</ele>
        <time>2023-11-02T20:31:44Z</time>
      </trkpt>
      <trkpt lat="48.82351" lon="-0.37231">
        <ele>197</ele>
        <time>2023-11-02T20:32:42Z</time>
      </trkpt>
      <trkpt lat="48.82369" lon="-0.3725">
        <ele>195</ele>
        <time>2023-11-02T20:33:11Z</time>
      </trkpt>
      <trkpt lat="48.8239" lon="-0.37297">
        <ele>192</ele>
        <time>2023-11-02T20:34:01Z</time>
      </trkpt>
      <trkpt lat="48.82402" lon="-0.37305">
        <ele>191</ele>
        <time>2023-11-02T20:34:19Z</time>
      </trkpt>
      <trkpt lat="48.8242" lon="-0.37332">
        <ele>190</ele>
        <time>2023-11-02T20:34:52Z</time>
      </trkpt>
      <trkpt lat="48.82436" lon="-0.37343">
        <ele>187</ele>
        <time>2023-11-02T20:35:16Z</time>
      </trkpt>
      <trkpt lat="48.82445" lon="-0.37355">
        <ele>185</ele>
        <time>2023-11-02T20:35:32Z</time>
      </trkpt>
      <trkpt lat="48.82484" lon="-0.37372">
        <ele>181</ele>
        <time>2023-11-02T20:36:26Z</time>
      </trkpt>
      <trkpt lat="48.82513" lon="-0.37417">
        <ele>178</ele>
        <time>2023-11-02T20:37:21Z</time>
      </trkpt>
      <trkpt lat="48.82518" lon="-0.3744">
        <ele>178</ele>
        <time>2023-11-02T20:37:43Z</time>
      </trkpt>
      <trkpt lat="48.82561" lon="-0.37539">
        <ele>179</ele>
        <time>2023-11-02T20:39:27Z</time>
      </trkpt>
      <trkpt lat="48.82565" lon="-0.37566">
        <ele>179</ele>
        <time>2023-11-02T20:39:51Z</time>
      </trkpt>
      <trkpt lat="48.82581" lon="-0.37582">
        <ele>180</ele>
        <time>2023-11-02T20:40:17Z</time>
      </trkpt>
      <trkpt lat="48.82598" lon="-0.37613">
        <ele>178</ele>
        <time>2023-11-02T20:40:52Z</time>
      </trkpt>
      <trkpt lat="48.82605" lon="-0.37638">
        <ele>177</ele>
        <time>2023-11-02T20:41:16Z</time>
      </trkpt>
      <trkpt lat="48.82629" lon="-0.37678">
        <ele>174</ele>
        <time>2023-11-02T20:42:04Z</time>
      </trkpt>
      <trkpt lat="48.82639" lon="-0.37714">
        <ele>171</ele>
        <time>2023-11-02T20:42:38Z</time>
      </trkpt>
      <trkpt lat="48.82681" lon="-0.37794">
        <ele>166</ele>
        <time>2023-11-02T20:44:08Z</time>
      </trkpt>
      <trkpt lat="48.82691" lon="-0.37825">
        <ele>163</ele>
        <time>2023-11-02T20:44:38Z</time>
      </trkpt>
      <trkpt lat="48.82723" lon="-0.37859">
        <ele>159</ele>
        <time>2023-11-02T20:45:30Z</time>
      </trkpt>
      <trkpt lat="48.82778" lon="-0.37888">
        <ele>159</ele>
        <time>2023-11-02T20:46:48Z</time>
      </trkpt>
      <trkpt lat="48.82784" lon="-0.37889">
        <ele>159</ele>
        <time>2023-11-02T20:46:56Z</time>
      </trkpt>
      <trkpt lat="48.828" lon="-0.37876">
        <ele>159</ele>
        <time>2023-11-02T20:47:20Z</time>
      </trkpt>
      <trkpt lat="48.82815" lon="-0.37872">
        <ele>159</ele>
        <time>2023-11-02T20:47:41Z</time>
      </trkpt>
      <trkpt lat="48.82827" lon="-0.3788">
        <ele>159</ele>
        <time>2023-11-02T20:47:58Z</time>
      </trkpt>
      <trkpt lat="48.82842" lon="-0.37919">
        <ele>161</ele>
        <time>2023-11-02T20:48:38Z</time>
      </trkpt>
      <trkpt lat="48.82857" lon="-0.37938">
        <ele>161</ele>
        <time>2023-11-02T20:49:04Z</time>
      </trkpt>
      <trkpt lat="48.82871" lon="-0.37974">
        <ele>160</ele>
        <time>2023-11-02T20:49:40Z</time>
      </trkpt>
      <trkpt lat="48.82917" lon="-0.38052">
        <ele>159</ele>
        <time>2023-11-02T20:51:12Z</time>
      </trkpt>
      <trkpt lat="48.82929" lon="-0.3805">
        <ele>159</ele>
        <time>2023-11-02T20:51:29Z</time>
      </trkpt>
      <trkpt lat="48.82968" lon="-0.38059">
        <ele>158</ele>
        <time>2023-11-02T20:52:21Z</time>
      </trkpt>
      <trkpt lat="48.83" lon="-0.38034">
        <ele>159</ele>
        <time>2023-11-02T20:53:09Z</time>
      </trkpt>
      <trkpt lat="48.83019" lon="-0.38028">
        <ele>158</ele>
        <time>2023-11-02T20:53:35Z</time>
      </trkpt>
      <trkpt lat="48.83044" lon="-0.3801">
        <ele>158</ele>
        <time>2023-11-02T20:54:12Z</time>
      </trkpt>
      <trkpt lat="48.83056" lon="-0.38009">
        <ele>158</ele>
        <time>2023-11-02T20:54:28Z</time>
      </trkpt>
      <trkpt lat="48.83084" lon="-0.37994">
        <ele>157</ele>
        <time>2023-11-02T20:55:08Z</time>
      </trkpt>
      <trkpt lat="48.83109" lon="-0.37987">
        <ele>157</ele>
        <time>2023-11-02T20:55:42Z</time>
      </trkpt>
      <trkpt lat="48.83158" lon="-0.3796">
        <ele>158</ele>
        <time>2023-11-02T20:56:51Z</time>
      </trkpt>
      <trkpt lat="48.83186" lon="-0.37953">
        <ele>158</ele>
        <time>2023-11-02T20:57:29Z</time>
      </trkpt>
      <trkpt lat="48.83227" lon="-0.37948">
        <ele>157</ele>
        <time>2023-11-02T20:58:24Z</time>
      </trkpt>
      <trkpt lat="48.83291" lon="-0.37948">
        <ele>156</ele>
        <time>2023-11-02T20:59:49Z</time>
      </trkpt>
      <trkpt lat="48.8331" lon="-0.37942">
        <ele>155</ele>
        <time>2023-11-02T21:00:15Z</time>
      </trkpt>
      <trkpt lat="48.83447" lon="-0.37931">
        <ele>154</ele>
        <time>2023-11-02T21:03:18Z</time>
      </trkpt>
      <trkpt lat="48.83488" lon="-0.37935">
        <ele>155</ele>
        <time>2023-11-02T21:04:13Z</time>
      </trkpt>
      <trkpt lat="48.83514" lon="-0.37927">
        <ele>153</ele>
        <time>2023-11-02T21:04:49Z</time>
      </trkpt>
      <trkpt lat="48.83535" lon="-0.37928">
        <ele>152</ele>
        <time>2023-11-02T21:05:17Z</time>
      </trkpt>
      <trkpt lat="48.83558" lon="-0.37923">
        <ele>150</ele>
        <time>2023-11-02T21:05:48Z</time>
      </trkpt>
      <trkpt lat="48.83568" lon="-0.37927">
        <ele>150</ele>
        <time>2023-11-02T21:06:01Z</time>
      </trkpt>
      <trkpt lat="48.83596" lon="-0.37916">
        <ele>148</ele>
        <time>2023-11-02T21:06:40Z</time>
      </trkpt>
      <trkpt lat="48.83611" lon="-0.37905">
        <ele>147</ele>
        <time>2023-11-02T21:07:02Z</time>
      </trkpt>
      <trkpt lat="48.83685" lon="-0.37833">
        <ele>142</ele>
        <time>2023-11-02T21:08:59Z</time>
      </trkpt>
      <trkpt lat="48.83687" lon="-0.37827">
        <ele>142</ele>
        <time>2023-11-02T21:09:05Z</time>
      </trkpt>
      <trkpt lat="48.83739" lon="-0.37798">
        <ele>141</ele>
        <time>2023-11-02T21:10:19Z</time>
      </trkpt>
      <trkpt lat="48.83772" lon="-0.37798">
        <ele>140</ele>
        <time>2023-11-02T21:11:03Z</time>
      </trkpt>
      <trkpt lat="48.83829" lon="-0.37857">
        <ele>139</ele>
        <time>2023-11-02T21:12:35Z</time>
      </trkpt>
      <trkpt lat="48.83845" lon="-0.37865">
        <ele>137</ele>
        <time>2023-11-02T21:12:58Z</time>
      </trkpt>
      <trkpt lat="48.83857" lon="-0.37889">
        <ele>136</ele>
        <time>2023-11-02T21:13:24Z</time>
      </trkpt>
      <trkpt lat="48.83876" lon="-0.37903">
        <ele>135</ele>
        <time>2023-11-02T21:13:53Z</time>
      </trkpt>
      <trkpt lat="48.83894" lon="-0.37927">
        <ele>134</ele>
        <time>2023-11-02T21:14:24Z</time>
      </trkpt>
      <trkpt lat="48.83901" lon="-0.37949">
        <ele>134</ele>
        <time>2023-11-02T21:14:46Z</time>
      </trkpt>
      <trkpt lat="48.83983" lon="-0.38042">
        <ele>127</ele>
        <time>2023-11-02T21:17:02Z</time>
      </trkpt>
      <trkpt lat="48.8401" lon="-0.38096">
        <ele>125</ele>
        <time>2023-11-02T21:18:02Z</time>
      </trkpt>
      <trkpt lat="48.8402" lon="-0.38142">
        <ele>124</ele>
        <time>2023-11-02T21:18:45Z</time>
      </trkpt>
      <trkpt lat="48.84031" lon="-0.38153">
        <ele>122</ele>
        <time>2023-11-02T21:19:02Z</time>
      </trkpt>
      <trkpt lat="48.84058" lon="-0.38196">
        <ele>116</ele>
        <time>2023-11-02T21:19:54Z</time>
      </trkpt>
      <trkpt lat="48.84076" lon="-0.38237">
        <ele>112</ele>
        <time>2023-11-02T21:20:38Z</time>
      </trkpt>
      <trkpt lat="48.8409" lon="-0.38257">
        <ele>109</ele>
        <time>2023-11-02T21:21:03Z</time>
      </trkpt>
      <trkpt lat="48.84102" lon="-0.38289">
        <ele>105</ele>
        <time>2023-11-02T21:21:36Z</time>
      </trkpt>
      <trkpt lat="48.84122" lon="-0.38313">
        <ele>101</ele>
        <time>2023-11-02T21:22:10Z</time>
      </trkpt>
      <trkpt lat="48.84136" lon="-0.38309">
        <ele>99</ele>
        <time>2023-11-02T21:22:29Z</time>
      </trkpt>
      <trkpt lat="48.84147" lon="-0.38343">
        <ele>97</ele>
        <time>2023-11-02T21:23:02Z</time>
      </trkpt>
      <trkpt lat="48.8416" lon="-0.38365">
        <ele>95</ele>
        <time>2023-11-02T21:23:28Z</time>
      </trkpt>
      <trkpt lat="48.84158" lon="-0.38391">
        <ele>95</ele>
        <time>2023-11-02T21:23:51Z</time>
      </trkpt>
      <trkpt lat="48.84162" lon="-0.38435">
        <ele>94</ele>
        <time>2023-11-02T21:24:30Z</time>
      </trkpt>
      <trkpt lat="48.84168" lon="-0.38458">
        <ele>93</ele>
        <time>2023-11-02T21:24:52Z</time>
      </trkpt>
      <trkpt lat="48.84161" lon="-0.38492">
        <ele>93</ele>
        <time>2023-11-02T21:25:23Z</time>
      </trkpt>
      <trkpt lat="48.84156" lon="-0.38569">
        <ele>94</ele>
        <time>2023-11-02T21:26:31Z</time>
      </trkpt>
      <trkpt lat="48.8416" lon="-0.3871">
        <ele>98</ele>
        <time>2023-11-02T21:28:35Z</time>
      </trkpt>
      <trkpt lat="48.84173" lon="-0.38761">
        <ele>96</ele>
        <time>2023-11-02T21:29:23Z</time>
      </trkpt>
      <trkpt lat="48.8418" lon="-0.38808">
        <ele>96</ele>
        <time>2023-11-02T21:30:05Z</time>
      </trkpt>
      <trkpt lat="48.84177" lon="-0.38834">
        <ele>98</ele>
        <time>2023-11-02T21:30:28Z</time>
      </trkpt>
      <trkpt lat="48.84165" lon="-0.38856">
        <ele>100</ele>
        <time>2023-11-02T21:30:53Z</time>
      </trkpt>
      <trkpt lat="48.84163" lon="-0.38874">
        <ele>99</ele>
        <time>2023-11-02T21:31:09Z</time>
      </trkpt>
      <trkpt lat="48.84169" lon="-0.38879">
        <ele>98</ele>
        <time>2023-11-02T21:31:19Z</time>
      </trkpt>
      <trkpt lat="48.84173" lon="-0.38891">
        <ele>98</ele>
        <time>2023-11-02T21:31:30Z</time>
      </trkpt>
      <trkpt lat="48.84208" lon="-0.39094">
        <ele>96</ele>
        <time>2023-11-02T21:34:35Z</time>
      </trkpt>
      <trkpt lat="48.84218" lon="-0.39249">
        <ele>90</ele>
        <time>2023-11-02T21:36:52Z</time>
      </trkpt>
      <trkpt lat="48.8421" lon="-0.39332">
        <ele>85</ele>
        <time>2023-11-02T21:38:05Z</time>
      </trkpt>
      <trkpt lat="48.84187" lon="-0.39411">
        <ele>77</ele>
        <time>2023-11-02T21:39:21Z</time>
      </trkpt>
      <trkpt lat="48.84186" lon="-0.39425">
        <ele>75</ele>
        <time>2023-11-02T21:39:33Z</time>
      </trkpt>
      <trkpt lat="48.84195" lon="-0.39457">
        <ele>71</ele>
        <time>2023-11-02T21:40:04Z</time>
      </trkpt>
      <trkpt lat="48.84226" lon="-0.39492">
        <ele>68</ele>
        <time>2023-11-02T21:40:56Z</time>
      </trkpt>
      <trkpt lat="48.84237" lon="-0.39534">
        <ele>65</ele>
        <time>2023-11-02T21:41:35Z</time>
      </trkpt>
      <trkpt lat="48.84257" lon="-0.39563">
        <ele>62</ele>
        <time>2023-11-02T21:42:12Z</time>
      </trkpt>
      <trkpt lat="48.84246" lon="-0.39574">
        <ele>61</ele>
        <time>2023-11-02T21:42:30Z</time>
      </trkpt>
      <trkpt lat="48.84218" lon="-0.39581">
        <ele>61</ele>
        <time>2023-11-02T21:43:08Z</time>
      </trkpt>
      <trkpt lat="48.84205" lon="-0.3958">
        <ele>61</ele>
        <time>2023-11-02T21:43:25Z</time>
      </trkpt>
      <trkpt lat="48.84177" lon="-0.39632">
        <ele>62</ele>
        <time>2023-11-02T21:44:24Z</time>
      </trkpt>
      <trkpt lat="48.84175" lon="-0.39642">
        <ele>62</ele>
        <time>2023-11-02T21:44:33Z</time>
      </trkpt>
      <trkpt lat="48.84187" lon="-0.39682">
        <ele>63</ele>
        <time>2023-11-02T21:45:12Z</time>
      </trkpt>
      <trkpt lat="48.8418" lon="-0.3967">
        <ele>62</ele>
        <time>2023-11-02T21:45:26Z</time>
      </trkpt>
      <trkpt lat="48.84172" lon="-0.39672">
        <ele>63</ele>
        <time>2023-11-02T21:45:37Z</time>
      </trkpt>
      <trkpt lat="48.84164" lon="-0.39667">
        <ele>63</ele>
        <time>2023-11-02T21:45:48Z</time>
      </trkpt>
      <trkpt lat="48.84166" lon="-0.39694">
        <ele>66</ele>
        <time>2023-11-02T21:46:12Z</time>
      </trkpt>
      <trkpt lat="48.84149" lon="-0.39731">
        <ele>69</ele>
        <time>2023-11-02T21:46:52Z</time>
      </trkpt>
      <trkpt lat="48.84134" lon="-0.39807">
        <ele>73</ele>
        <time>2023-11-02T21:48:01Z</time>
      </trkpt>
      <trkpt lat="48.8412" lon="-0.39851">
        <ele>73</ele>
        <time>2023-11-02T21:48:44Z</time>
      </trkpt>
      <trkpt lat="48.84119" lon="-0.39876">
        <ele>73</ele>
        <time>2023-11-02T21:49:06Z</time>
      </trkpt>
      <trkpt lat="48.84134" lon="-0.39941">
        <ele>77</ele>
        <time>2023-11-02T21:50:07Z</time>
      </trkpt>
      <trkpt lat="48.84132" lon="-0.40006">
        <ele>78</ele>
        <time>2023-11-02T21:51:04Z</time>
      </trkpt>
      <trkpt lat="48.84128" lon="-0.40018">
        <ele>78</ele>
        <time>2023-11-02T21:51:16Z</time>
      </trkpt>
      <trkpt lat="48.84087" lon="-0.40063">
        <ele>76</ele>
        <time>2023-11-02T21:52:23Z</time>
      </trkpt>
      <trkpt lat="48.84088" lon="-0.40081">
        <ele>77</ele>
        <time>2023-11-02T21:52:39Z</time>
      </trkpt>
      <trkpt lat="48.84083" lon="-0.40099">
        <ele>78</ele>
        <time>2023-11-02T21:52:56Z</time>
      </trkpt>
      <trkpt lat="48.84103" lon="-0.40184">
        <ele>81</ele>
        <time>2023-11-02T21:54:16Z</time>
      </trkpt>
      <trkpt lat="48.8412" lon="-0.40226">
        <ele>83</ele>
        <time>2023-11-02T21:54:59Z</time>
      </trkpt>
      <trkpt lat="48.84137" lon="-0.40248">
        <ele>85</ele>
        <time>2023-11-02T21:55:29Z</time>
      </trkpt>
      <trkpt lat="48.84163" lon="-0.40263">
        <ele>86</ele>
        <time>2023-11-02T21:56:06Z</time>
      </trkpt>
      <trkpt lat="48.84177" lon="-0.40279">
        <ele>88</ele>
        <time>2023-11-02T21:56:29Z</time>
      </trkpt>
      <trkpt lat="48.84192" lon="-0.40327">
        <ele>93</ele>
        <time>2023-11-02T21:57:16Z</time>
      </trkpt>
      <trkpt lat="48.842" lon="-0.40368">
        <ele>97</ele>
        <time>2023-11-02T21:57:53Z</time>
      </trkpt>
      <trkpt lat="48.84219" lon="-0.40406">
        <ele>103</ele>
        <time>2023-11-02T21:58:35Z</time>
      </trkpt>
      <trkpt lat="48.84256" lon="-0.40431">
        <ele>109</ele>
        <time>2023-11-02T21:59:29Z</time>
      </trkpt>
      <trkpt lat="48.84269" lon="-0.40433">
        <ele>110</ele>
        <time>2023-11-02T21:59:47Z</time>
      </trkpt>
      <trkpt lat="48.84287" lon="-0.40449">
        <ele>113</ele>
        <time>2023-11-02T22:00:15Z</time>
      </trkpt>
      <trkpt lat="48.84331" lon="-0.40461">
        <ele>118</ele>
        <time>2023-11-02T22:01:14Z</time>
      </trkpt>
      <trkpt lat="48.84353" lon="-0.4048">
        <ele>120</ele>
        <time>2023-11-02T22:01:48Z</time>
      </trkpt>
      <trkpt lat="48.8437" lon="-0.40473">
        <ele>119</ele>
        <time>2023-11-02T22:02:12Z</time>
      </trkpt>
      <trkpt lat="48.84395" lon="-0.40481">
        <ele>119</ele>
        <time>2023-11-02T22:02:46Z</time>
      </trkpt>
      <trkpt lat="48.8443" lon="-0.40513">
        <ele>119</ele>
        <time>2023-11-02T22:03:40Z</time>
      </trkpt>
      <trkpt lat="48.8448" lon="-0.40546">
        <ele>116</ele>
        <time>2023-11-02T22:04:53Z</time>
      </trkpt>
      <trkpt lat="48.84493" lon="-0.40562">
        <ele>116</ele>
        <time>2023-11-02T22:05:15Z</time>
      </trkpt>
      <trkpt lat="48.84516" lon="-0.40575">
        <ele>115</ele>
        <time>2023-11-02T22:05:48Z</time>
      </trkpt>
      <trkpt lat="48.84533" lon="-0.40603">
        <ele>116</ele>
        <time>2023-11-02T22:06:21Z</time>
      </trkpt>
      <trkpt lat="48.84563" lon="-0.40627">
        <ele>116</ele>
        <time>2023-11-02T22:07:07Z</time>
      </trkpt>
      <trkpt lat="48.84573" lon="-0.40641">
        <ele>116</ele>
        <time>2023-11-02T22:07:25Z</time>
      </trkpt>
      <trkpt lat="48.84644" lon="-0.40694">
        <ele>115</ele>
        <time>2023-11-02T22:09:10Z</time>
      </trkpt>
      <trkpt lat="48.84692" lon="-0.40753">
        <ele>112</ele>
        <time>2023-11-02T22:10:33Z</time>
      </trkpt>
      <trkpt lat="48.84753" lon="-0.40814">
        <ele>106</ele>
        <time>2023-11-02T22:12:10Z</time>
      </trkpt>
      <trkpt lat="48.8477" lon="-0.40851">
        <ele>106</ele>
        <time>2023-11-02T22:12:50Z</time>
      </trkpt>
      <trkpt lat="48.84776" lon="-0.409">
        <ele>107</ele>
        <time>2023-11-02T22:13:34Z</time>
      </trkpt>
      <trkpt lat="48.84795" lon="-0.40932">
        <ele>108</ele>
        <time>2023-11-02T22:14:11Z</time>
      </trkpt>
      <trkpt lat="48.848" lon="-0.40951">
        <ele>108</ele>
        <time>2023-11-02T22:14:29Z</time>
      </trkpt>
      <trkpt lat="48.84822" lon="-0.4098">
        <ele>109</ele>
        <time>2023-11-02T22:15:08Z</time>
      </trkpt>
      <trkpt lat="48.84838" lon="-0.40994">
        <ele>109</ele>
        <time>2023-11-02T22:15:33Z</time>
      </trkpt>
      <trkpt lat="48.84879" lon="-0.41015">
        <ele>110</ele>
        <time>2023-11-02T22:16:31Z</time>
      </trkpt>
      <trkpt lat="48.84948" lon="-0.4108">
        <ele>111</ele>
        <time>2023-11-02T22:18:19Z</time>
      </trkpt>
      <trkpt lat="48.84986" lon="-0.41099">
        <ele>110</ele>
        <time>2023-11-02T22:19:12Z</time>
      </trkpt>
      <trkpt lat="48.84996" lon="-0.411">
        <ele>109</ele>
        <time>2023-11-02T22:19:26Z</time>
      </trkpt>
      <trkpt lat="48.85013" lon="-0.41093">
        <ele>109</ele>
        <time>2023-11-02T22:19:49Z</time>
      </trkpt>
      <trkpt lat="48.85053" lon="-0.41106">
        <ele>108</ele>
        <time>2023-11-02T22:20:44Z</time>
      </trkpt>
      <trkpt lat="48.85072" lon="-0.41135">
        <ele>108</ele>
        <time>2023-11-02T22:21:20Z</time>
      </trkpt>
      <trkpt lat="48.85089" lon="-0.41203">
        <ele>110</ele>
        <time>2023-11-02T22:22:24Z</time>
      </trkpt>
      <trkpt lat="48.85115" lon="-0.41238">
        <ele>113</ele>
        <time>2023-11-02T22:23:10Z</time>
      </trkpt>
      <trkpt lat="48.85134" lon="-0.41246">
        <ele>114</ele>
        <time>2023-11-02T22:23:36Z</time>
      </trkpt>
      <trkpt lat="48.85152" lon="-0.41242">
        <ele>116</ele>
        <time>2023-11-02T22:24:01Z</time>
      </trkpt>
      <trkpt lat="48.85164" lon="-0.41244">
        <ele>117</ele>
        <time>2023-11-02T22:24:17Z</time>
      </trkpt>
      <trkpt lat="48.85194" lon="-0.41232">
        <ele>119</ele>
        <time>2023-11-02T22:24:58Z</time>
      </trkpt>
      <trkpt lat="48.85202" lon="-0.4122">
        <ele>120</ele>
        <time>2023-11-02T22:25:13Z</time>
      </trkpt>
      <trkpt lat="48.85217" lon="-0.41225">
        <ele>121</ele>
        <time>2023-11-02T22:25:34Z</time>
      </trkpt>
      <trkpt lat="48.85231" lon="-0.41243">
        <ele>122</ele>
        <time>2023-11-02T22:25:58Z</time>
      </trkpt>
      <trkpt lat="48.85243" lon="-0.41248">
        <ele>123</ele>
        <time>2023-11-02T22:26:15Z</time>
      </trkpt>
      <trkpt lat="48.8529" lon="-0.41252">
        <ele>125</ele>
        <time>2023-11-02T22:27:17Z</time>
      </trkpt>
      <trkpt lat="48.85294" lon="-0.41234">
        <ele>125</ele>
        <time>2023-11-02T22:27:34Z</time>
      </trkpt>
      <trkpt lat="48.85299" lon="-0.41233">
        <ele>125</ele>
        <time>2023-11-02T22:27:41Z</time>
      </trkpt>
      <trkpt lat="48.85307" lon="-0.41213">
        <ele>125</ele>
        <time>2023-11-02T22:28:01Z</time>
      </trkpt>
      <trkpt lat="48.85334" lon="-0.41127">
        <ele>124</ele>
        <time>2023-11-02T22:29:25Z</time>
      </trkpt>
      <trkpt lat="48.85349" lon="-0.41101">
        <ele>122</ele>
        <time>2023-11-02T22:29:55Z</time>
      </trkpt>
      <trkpt lat="48.85354" lon="-0.41104">
        <ele>122</ele>
        <time>2023-11-02T22:30:03Z</time>
      </trkpt>
      <trkpt lat="48.85379" lon="-0.41103">
        <ele>122</ele>
        <time>2023-11-02T22:30:36Z</time>
      </trkpt>
      <trkpt lat="48.85392" lon="-0.41109">
        <ele>122</ele>
        <time>2023-11-02T22:30:54Z</time>
      </trkpt>
      <trkpt lat="48.85411" lon="-0.41123">
        <ele>123</ele>
        <time>2023-11-02T22:31:22Z</time>
      </trkpt>
      <trkpt lat="48.85429" lon="-0.41143">
        <ele>124</ele>
        <time>2023-11-02T22:31:52Z</time>
      </trkpt>
      <trkpt lat="48.85465" lon="-0.41164">
        <ele>124</ele>
        <time>2023-11-02T22:32:44Z</time>
      </trkpt>
      <trkpt lat="48.8548" lon="-0.41184">
        <ele>125</ele>
        <time>2023-11-02T22:33:10Z</time>
      </trkpt>
      <trkpt lat="48.85508" lon="-0.41208">
        <ele>125</ele>
        <time>2023-11-02T22:33:53Z</time>
      </trkpt>
      <trkpt lat="48.85529" lon="-0.41215">
        <ele>124</ele>
        <time>2023-11-02T22:34:22Z</time>
      </trkpt>
      <trkpt lat="48.85552" lon="-0.41215">
        <ele>122</ele>
        <time>2023-11-02T22:34:52Z</time>
      </trkpt>
      <trkpt lat="48.85563" lon="-0.4121">
        <ele>121</ele>
        <time>2023-11-02T22:35:08Z</time>
      </trkpt>
      <trkpt lat="48.85564" lon="-0.412">
        <ele>120</ele>
        <time>2023-11-02T22:35:17Z</time>
      </trkpt>
    </trkseg>
  </trk>
</gpx>